
Distance (Route):
Temperature : 9.8°C
Humidity : 83.3%
Pressure : 0hPa| Receiver | Frames | First received | Last received |
|---|---|---|---|
| DL9RDZ-1 | 422 | 2026-09-03 23:03:33 | 2026-09-04 01:21:20 |
| Receiver | Date | Latitude | Longitude | Direction | Speed | Altitude | Climb | Temperature | Humidity | Pressure | Voltage | Killtimer | Uptime | BKT | XDATA |
|---|---|---|---|---|---|---|---|---|---|---|---|---|---|---|---|
| DL9RDZ-1 | 2026-09-04 01:21:20 | 64.09355 | -21.92378 | 142° | 13km/h | 162m | -11.6m/s | 9.8°C | 83.3% | 0hPa | 0V | 08:02:00 | 00:00:00 | 00:00:00 | |
| DL9RDZ-1 | 2026-09-04 01:21:09 | 64.09374 | -21.92417 | 141° | 5km/h | 268m | -12.0m/s | 9.0°C | 76.0% | 0hPa | 0V | 08:02:00 | 00:00:00 | 00:00:00 | |
| DL9RDZ-1 | 2026-09-04 01:20:58 | 64.09383 | -21.92445 | 126° | 5km/h | 397m | -12.2m/s | 8.1°C | 75.7% | 0hPa | 0V | 08:03:00 | 00:00:00 | 00:00:00 | |
| DL9RDZ-1 | 2026-09-04 01:20:47 | 64.09395 | -21.92483 | 142° | 11km/h | 512m | -13.0m/s | 7.6°C | 73.3% | 0hPa | 0V | 08:03:00 | 00:00:00 | 00:00:00 | |
| DL9RDZ-1 | 2026-09-04 01:20:36 | 64.09415 | -21.92535 | 140° | 13km/h | 625m | -11.3m/s | 6.7°C | 76.0% | 0hPa | 0V | 08:03:00 | 00:00:00 | 00:00:00 | |
| DL9RDZ-1 | 2026-09-04 01:20:25 | 64.09439 | -21.92579 | 169° | 11km/h | 738m | -11.1m/s | 5.8°C | 78.4% | 0hPa | 0V | 08:03:00 | 00:00:00 | 00:00:00 | |
| DL9RDZ-1 | 2026-09-04 01:20:15 | 64.09456 | -21.92589 | 145° | 4km/h | 854m | -12.0m/s | 5.4°C | 76.3% | 0hPa | 0V | 08:04:00 | 00:00:00 | 00:00:00 | |
| DL9RDZ-1 | 2026-09-04 01:20:04 | 64.09464 | -21.92597 | 94° | 2km/h | 983m | -12.6m/s | 4.2°C | 81.5% | 0hPa | 0V | 08:04:00 | 00:00:00 | 00:00:00 | |
| DL9RDZ-1 | 2026-09-04 01:19:54 | 64.09464 | -21.92612 | 0° | 0km/h | 1090m | -12.8m/s | 3.2°C | 86.9% | 0hPa | 0V | 08:04:00 | 00:00:00 | 00:00:00 | |
| DL9RDZ-1 | 2026-09-04 01:19:44 | 64.09456 | -21.92612 | 284° | 2km/h | 1203m | -11.9m/s | 2.1°C | 92.6% | 0hPa | 0V | 08:04:00 | 00:00:00 | 00:00:00 | |
| DL9RDZ-1 | 2026-09-04 01:19:33 | 64.09447 | -21.92586 | 290° | 7km/h | 1319m | -11.9m/s | 1.3°C | 93.5% | 0hPa | 0V | 08:04:00 | 00:00:00 | 00:00:00 | |
| DL9RDZ-1 | 2026-09-04 01:19:22 | 64.09443 | -21.92558 | 265° | 4km/h | 1444m | -11.7m/s | 1.0°C | 96.3% | 0hPa | 0V | 08:04:00 | 00:00:00 | 00:00:00 | |
| DL9RDZ-1 | 2026-09-04 01:19:12 | 64.09453 | -21.92521 | 229° | 7km/h | 1561m | -12.1m/s | 0.6°C | 95.5% | 0hPa | 0V | 08:04:00 | 00:00:00 | 00:00:00 | |
| DL9RDZ-1 | 2026-09-04 01:19:01 | 64.09467 | -21.92499 | 179° | 5km/h | 1678m | -10.6m/s | -0.3°C | 98.3% | 0hPa | 0V | 08:04:00 | 00:00:00 | 00:00:00 | |
| DL9RDZ-1 | 2026-09-04 01:18:50 | 64.09469 | -21.92529 | 111° | 7km/h | 1790m | -11.7m/s | -0.4°C | 94.6% | 0hPa | 0V | 08:04:00 | 00:00:00 | 00:00:00 | |
| DL9RDZ-1 | 2026-09-04 01:18:39 | 64.09464 | -21.92577 | 71° | 9km/h | 1910m | -11.7m/s | -1.4°C | 99.7% | 0hPa | 0V | 08:04:00 | 00:00:00 | 00:00:00 | |
| DL9RDZ-1 | 2026-09-04 01:18:28 | 64.09456 | -21.92606 | 114° | 2km/h | 2029m | -12.1m/s | -1.8°C | 94.6% | 0hPa | 0V | 08:05:00 | 00:00:00 | 00:00:00 | |
| DL9RDZ-1 | 2026-09-04 01:18:18 | 64.09456 | -21.92607 | 0° | 0km/h | 2140m | -11.0m/s | -2.5°C | 93.4% | 0hPa | 0V | 08:05:00 | 00:00:00 | 00:00:00 | |
| DL9RDZ-1 | 2026-09-04 01:18:07 | 64.09453 | -21.92604 | 233° | 2km/h | 2253m | -11.5m/s | -3.1°C | 88.4% | 0hPa | 0V | 08:05:00 | 00:00:00 | 00:00:00 | |
| DL9RDZ-1 | 2026-09-04 01:17:57 | 64.09458 | -21.92596 | 214° | 4km/h | 2361m | -13.5m/s | -3.5°C | 74.3% | 0hPa | 0V | 08:05:00 | 00:00:00 | 00:00:00 | |
| DL9RDZ-1 | 2026-09-04 01:17:46 | 64.09459 | -21.92596 | 16° | 2km/h | 2493m | -11.6m/s | -4.6°C | 78.6% | 0hPa | 0V | 08:05:00 | 00:00:00 | 00:00:00 | |
| DL9RDZ-1 | 2026-09-04 01:17:36 | 64.09451 | -21.92607 | 46° | 4km/h | 2612m | -13.3m/s | -5.7°C | 83.1% | 0hPa | 0V | 08:06:00 | 00:00:00 | 00:00:00 | |
| DL9RDZ-1 | 2026-09-04 01:17:15 | 64.09426 | -21.92657 | 44° | 7km/h | 2855m | -13.2m/s | -7.9°C | 92.8% | 0hPa | 0V | 08:06:00 | 00:00:00 | 00:00:00 | |
| DL9RDZ-1 | 2026-09-04 01:17:05 | 64.09415 | -21.92694 | 52° | 5km/h | 2965m | -11.6m/s | -8.9°C | 0% | 0hPa | 0V | 08:06:00 | 00:00:00 | 00:00:00 | |
| DL9RDZ-1 | 2026-09-04 01:16:54 | 64.09398 | -21.92727 | 36° | 7km/h | 3089m | -12.5m/s | -9.9°C | 0% | 0hPa | 0V | 08:06:00 | 00:00:00 | 00:00:00 | |
| DL9RDZ-1 | 2026-09-04 01:16:43 | 64.09399 | -21.92728 | 182° | 5km/h | 3220m | -12.4m/s | -8.9°C | 71.8% | 0hPa | 0V | 08:07:00 | 00:00:00 | 00:00:00 | |
| DL9RDZ-1 | 2026-09-04 01:16:33 | 64.09412 | -21.92718 | 196° | 5km/h | 3335m | -11.6m/s | -9.5°C | 65.3% | 0hPa | 0V | 08:07:00 | 00:00:00 | 00:00:00 | |
| DL9RDZ-1 | 2026-09-04 01:16:23 | 64.09429 | -21.92722 | 157° | 9km/h | 3453m | -12.3m/s | -10.1°C | 62.8% | 0hPa | 0V | 08:07:00 | 00:00:00 | 00:00:00 | |
| DL9RDZ-1 | 2026-09-04 01:16:13 | 64.09447 | -21.92735 | 165° | 7km/h | 3576m | -12.4m/s | -10.7°C | 55.9% | 0hPa | 0V | 08:07:00 | 00:00:00 | 00:00:00 | |
| DL9RDZ-1 | 2026-09-04 01:16:01 | 64.09458 | -21.92745 | 159° | 2km/h | 3709m | -12.5m/s | -11.7°C | 52.2% | 0hPa | 0V | 08:08:00 | 00:00:00 | 00:00:00 | |
| DL9RDZ-1 | 2026-09-04 01:15:51 | 64.09464 | -21.92749 | 0° | 0km/h | 3828m | -12.2m/s | -12.7°C | 54.3% | 0hPa | 0V | 08:08:00 | 00:00:00 | 00:00:00 | |
| DL9RDZ-1 | 2026-09-04 01:15:41 | 64.09469 | -21.92740 | 227° | 4km/h | 3945m | -11.5m/s | -13.6°C | 56.3% | 0hPa | 0V | 08:08:00 | 00:00:00 | 00:00:00 | |
| DL9RDZ-1 | 2026-09-04 01:15:31 | 64.09480 | -21.92710 | 232° | 9km/h | 4055m | -12.7m/s | -14.2°C | 43.2% | 0hPa | 0V | 08:08:00 | 00:00:00 | 00:00:00 | |
| DL9RDZ-1 | 2026-09-04 01:15:20 | 64.09499 | -21.92664 | 219° | 15km/h | 4177m | -12.1m/s | -14.7°C | 50.1% | 0hPa | 0V | 08:08:00 | 00:00:00 | 00:00:00 | |
| DL9RDZ-1 | 2026-09-04 01:15:10 | 64.09528 | -21.92615 | 229° | 15km/h | 4296m | -12.7m/s | -15.5°C | 60.5% | 0hPa | 0V | 08:09:00 | 00:00:00 | 00:00:00 | |
| DL9RDZ-1 | 2026-09-04 01:14:59 | 64.09556 | -21.92556 | 213° | 13km/h | 4421m | -11.7m/s | -16.0°C | 48.7% | 0hPa | 0V | 08:09:00 | 00:00:00 | 00:00:00 | |
| DL9RDZ-1 | 2026-09-04 01:14:48 | 64.09590 | -21.92535 | 171° | 13km/h | 4544m | -11.2m/s | -16.9°C | 52.5% | 0hPa | 0V | 08:09:00 | 00:00:00 | 00:00:00 | |
| DL9RDZ-1 | 2026-09-04 01:14:37 | 64.09632 | -21.92556 | 152° | 16km/h | 4688m | -12.7m/s | -17.8°C | 73.5% | 0hPa | 0V | 08:09:00 | 00:00:00 | 00:00:00 | |
| DL9RDZ-1 | 2026-09-04 01:14:26 | 64.09666 | -21.92598 | 144° | 13km/h | 4813m | -11.9m/s | -18.9°C | 75.0% | 0hPa | 0V | 08:09:00 | 00:00:00 | 00:00:00 | |
| DL9RDZ-1 | 2026-09-04 01:14:16 | 64.09691 | -21.92632 | 162° | 13km/h | 4928m | -12.6m/s | -19.4°C | 62.2% | 0hPa | 0V | 08:10:00 | 00:00:00 | 00:00:00 | |
| DL9RDZ-1 | 2026-09-04 01:14:03 | 64.09743 | -21.92653 | 170° | 18km/h | 5100m | -14.3m/s | -20.5°C | 53.4% | 0hPa | 0V | 08:10:00 | 00:00:00 | 00:00:00 | |
| DL9RDZ-1 | 2026-09-04 01:13:53 | 64.09792 | -21.92672 | 170° | 22km/h | 5239m | -13.6m/s | -21.7°C | 56.6% | 0hPa | 0V | 08:10:00 | 00:00:00 | 00:00:00 | |
| DL9RDZ-1 | 2026-09-04 01:13:43 | 64.09851 | -21.92697 | 168° | 24km/h | 5369m | -13.7m/s | -22.8°C | 66.1% | 0hPa | 0V | 08:10:00 | 00:00:00 | 00:00:00 | |
| DL9RDZ-1 | 2026-09-04 01:13:32 | 64.09914 | -21.92709 | 177° | 20km/h | 5518m | -13.2m/s | -24.1°C | 53.7% | 0hPa | 0V | 08:10:00 | 00:00:00 | 00:00:00 | |
| DL9RDZ-1 | 2026-09-04 01:13:22 | 64.09959 | -21.92716 | 183° | 16km/h | 5656m | -14.5m/s | -25.0°C | 41.7% | 0hPa | 0V | 00:00:00 | 00:00:00 | 00:00:00 | |
| DL9RDZ-1 | 2026-09-04 01:13:11 | 64.10005 | -21.92716 | 182° | 16km/h | 5816m | -14.6m/s | -26.4°C | 68.7% | 0hPa | 0V | 00:00:00 | 00:00:00 | 00:00:00 | |
| DL9RDZ-1 | 2026-09-04 01:12:59 | 64.10052 | -21.92714 | 184° | 15km/h | 5979m | -13.6m/s | -27.1°C | 54.3% | 0hPa | 0V | 00:00:00 | 00:00:00 | 00:00:00 | |
| DL9RDZ-1 | 2026-09-04 01:12:49 | 64.10090 | -21.92733 | 164° | 18km/h | 6115m | -14.2m/s | -28.1°C | 57.1% | 0hPa | 0V | 00:00:00 | 00:00:00 | 00:00:00 | |
| DL9RDZ-1 | 2026-09-04 01:12:39 | 64.10132 | -21.92765 | 166° | 20km/h | 6255m | -14.8m/s | -29.4°C | 65.7% | 0hPa | 0V | 00:00:00 | 00:00:00 | 00:00:00 | |
| DL9RDZ-1 | 2026-09-04 01:12:27 | 64.10186 | -21.92801 | 158° | 16km/h | 6419m | -14.8m/s | -30.7°C | 62.2% | 0hPa | 0V | 08:11:00 | 00:00:00 | 00:00:00 | |
| DL9RDZ-1 | 2026-09-04 01:12:16 | 64.10220 | -21.92850 | 136° | 13km/h | 6571m | -13.9m/s | -31.5°C | 33.9% | 0hPa | 0V | 08:11:00 | 00:00:00 | 00:00:00 | |
| DL9RDZ-1 | 2026-09-04 01:12:05 | 64.10236 | -21.92884 | 101° | 4km/h | 6728m | -14.1m/s | -32.5°C | 23.6% | 0hPa | 0V | 08:11:00 | 00:00:00 | 00:00:00 | |
| DL9RDZ-1 | 2026-09-04 01:11:55 | 64.10238 | -21.92899 | 73° | 2km/h | 6870m | -14.3m/s | -33.4°C | 14.4% | 0hPa | 0V | 08:11:00 | 00:00:00 | 00:00:00 | |
| DL9RDZ-1 | 2026-09-04 01:11:45 | 64.10236 | -21.92945 | 98° | 9km/h | 7028m | -14.5m/s | -34.8°C | 14.8% | 0hPa | 0V | 08:12:00 | 00:00:00 | 00:00:00 | |
| DL9RDZ-1 | 2026-09-04 01:11:33 | 64.10234 | -21.92985 | 102° | 7km/h | 7184m | -15.1m/s | -36.0°C | 21.1% | 0hPa | 0V | 08:12:00 | 00:00:00 | 00:00:00 | |
| DL9RDZ-1 | 2026-09-04 01:11:23 | 64.10238 | -21.93006 | 356° | 2km/h | 7328m | -15.2m/s | -37.0°C | 21.5% | 0hPa | 0V | 08:12:00 | 00:00:00 | 00:00:00 | |
| DL9RDZ-1 | 2026-09-04 01:11:13 | 64.10234 | -21.93003 | 273° | 4km/h | 7477m | -15.7m/s | -38.0°C | 34.0% | 0hPa | 0V | 08:12:00 | 00:00:00 | 00:00:00 | |
| DL9RDZ-1 | 2026-09-04 01:11:03 | 64.10235 | -21.92984 | 277° | 5km/h | 7645m | -15.4m/s | -39.5°C | 46.4% | 0hPa | 0V | 08:12:00 | 00:00:00 | 00:00:00 | |
| DL9RDZ-1 | 2026-09-04 01:10:52 | 64.10233 | -21.92963 | 266° | 4km/h | 7800m | -15.9m/s | -40.7°C | 49.1% | 0hPa | 0V | 00:00:00 | 00:00:00 | 00:00:00 | |
| DL9RDZ-1 | 2026-09-04 01:10:42 | 64.10232 | -21.92943 | 270° | 2km/h | 7977m | -16.9m/s | -42.0°C | 55.3% | 0hPa | 0V | 00:00:00 | 00:00:00 | 00:00:00 | |
| DL9RDZ-1 | 2026-09-04 01:10:21 | 64.10237 | -21.92894 | 243° | 5km/h | 8294m | -16.7m/s | -44.6°C | 60.1% | 0hPa | 0V | 00:00:00 | 00:00:00 | 00:00:00 | |
| DL9RDZ-1 | 2026-09-04 01:09:57 | 64.10244 | -21.92821 | 289° | 7km/h | 8676m | -16.1m/s | -47.4°C | 44.4% | 0hPa | 0V | 00:00:00 | 00:00:00 | 00:00:00 | |
| DL9RDZ-1 | 2026-09-04 01:09:44 | 64.10242 | -21.92795 | 0° | 0km/h | 8890m | -17.0m/s | -48.6°C | 35.6% | 0hPa | 0V | 00:00:00 | 00:00:00 | 00:00:00 | |
| DL9RDZ-1 | 2026-09-04 01:09:16 | 64.10231 | -21.92754 | 324° | 5km/h | 9372m | -17.4m/s | -51.3°C | 37.1% | 0hPa | 0V | 00:00:00 | 00:00:00 | 00:00:00 | |
| DL9RDZ-1 | 2026-09-04 01:07:49 | 64.09925 | -21.92958 | 55° | 11km/h | 10826m | -17.3m/s | -51.4°C | 3.7% | 0hPa | 0V | 08:16:00 | 00:00:00 | 00:00:00 | |
| DL9RDZ-1 | 2026-09-04 01:07:39 | 64.09899 | -21.93018 | 42° | 15km/h | 10996m | -17.2m/s | -49.2°C | 1.9% | 0hPa | 0V | 08:16:00 | 00:00:00 | 00:00:00 | |
| DL9RDZ-1 | 2026-09-04 01:07:29 | 64.09870 | -21.93092 | 54° | 18km/h | 11163m | -17.3m/s | -47.4°C | 1.6% | 0hPa | 0V | 00:00:00 | 00:00:00 | 00:00:00 | |
| DL9RDZ-1 | 2026-09-04 01:06:35 | 64.09755 | -21.93774 | 82° | 24km/h | 12127m | -19.6m/s | -44.9°C | 0.6% | 0hPa | 0V | 00:00:00 | 00:00:00 | 00:00:00 | |
| DL9RDZ-1 | 2026-09-04 00:28:04 | 64.04583 | -22.22538 | 64° | 27km/h | 22106m | 4.4m/s | -46.9°C | 0.8% | 0hPa | 0V | 00:00:00 | 00:00:00 | 00:00:00 | |
| DL9RDZ-1 | 2026-09-04 00:24:36 | 64.03888 | -22.25796 | 66° | 33km/h | 21103m | 5.8m/s | -48.8°C | 0.9% | 0hPa | 0V | 00:00:00 | 00:00:00 | 00:00:00 | |
| DL9RDZ-1 | 2026-09-04 00:24:08 | 64.03768 | -22.26327 | 62° | 38km/h | 20963m | 4.8m/s | -48.8°C | 0.9% | 0hPa | 0V | 00:00:00 | 00:00:00 | 00:00:00 | |
| DL9RDZ-1 | 2026-09-04 00:23:47 | 64.03655 | -22.26708 | 47° | 38km/h | 20856m | 4.8m/s | -48.6°C | 0.9% | 0hPa | 0V | 00:00:00 | 00:00:00 | 00:00:00 | |
| DL9RDZ-1 | 2026-09-04 00:22:10 | 64.03162 | -22.28182 | 37° | 33km/h | 20359m | 5.1m/s | -47.5°C | 0.9% | 0hPa | 0V | 00:00:00 | 00:00:00 | 00:00:00 | |
| DL9RDZ-1 | 2026-09-04 00:21:10 | 64.02856 | -22.28761 | 66° | 24km/h | 20072m | 3.8m/s | -46.5°C | 0.8% | 0hPa | 0V | 00:00:00 | 00:00:00 | 00:00:00 | |
| DL9RDZ-1 | 2026-09-04 00:20:59 | 64.02813 | -22.28913 | 65° | 35km/h | 20021m | 3.6m/s | -46.8°C | 0.8% | 0hPa | 0V | 00:00:00 | 00:00:00 | 00:00:00 | |
| DL9RDZ-1 | 2026-09-04 00:20:49 | 64.02782 | -22.29050 | 63° | 29km/h | 19977m | 5.4m/s | -46.7°C | 0.8% | 0hPa | 0V | 00:00:00 | 00:00:00 | 00:00:00 | |
| DL9RDZ-1 | 2026-09-04 00:20:39 | 64.02747 | -22.29220 | 85° | 31km/h | 19928m | 5.1m/s | -46.6°C | 0.8% | 0hPa | 0V | 00:00:00 | 00:00:00 | 00:00:00 | |
| DL9RDZ-1 | 2026-09-04 00:20:29 | 64.02718 | -22.29383 | 72° | 31km/h | 19883m | 4.1m/s | -46.7°C | 0.8% | 0hPa | 0V | 00:00:00 | 00:00:00 | 00:00:00 | |
| DL9RDZ-1 | 2026-09-04 00:20:18 | 64.02694 | -22.29552 | 64° | 27km/h | 19838m | 3.5m/s | -46.9°C | 0.8% | 0hPa | 0V | 00:00:00 | 00:00:00 | 00:00:00 | |
| DL9RDZ-1 | 2026-09-04 00:20:07 | 64.02670 | -22.29748 | 71° | 31km/h | 19789m | 3.6m/s | -47.1°C | 0.8% | 0hPa | 0V | 00:00:00 | 00:00:00 | 00:00:00 | |
| DL9RDZ-1 | 2026-09-04 00:19:56 | 64.02643 | -22.29976 | 88° | 40km/h | 19739m | 3.9m/s | -47.5°C | 0.9% | 0hPa | 0V | 00:00:00 | 00:00:00 | 00:00:00 | |
| DL9RDZ-1 | 2026-09-04 00:19:45 | 64.02608 | -22.30186 | 64° | 38km/h | 19690m | 4.8m/s | -47.6°C | 0.9% | 0hPa | 0V | 00:00:00 | 00:00:00 | 00:00:00 | |
| DL9RDZ-1 | 2026-09-04 00:19:34 | 64.02581 | -22.30425 | 80° | 42km/h | 19643m | 4.9m/s | -47.7°C | 0.9% | 0hPa | 0V | 00:00:00 | 00:00:00 | 00:00:00 | |
| DL9RDZ-1 | 2026-09-04 00:17:33 | 64.02211 | -22.32829 | 73° | 42km/h | 19047m | 4.4m/s | -47.1°C | 0.9% | 0hPa | 0V | 00:00:00 | 00:00:00 | 00:00:00 | |
| DL9RDZ-1 | 2026-09-04 00:17:23 | 64.02168 | -22.33079 | 74° | 44km/h | 18991m | 5.5m/s | -47.1°C | 0.9% | 0hPa | 0V | 00:00:00 | 00:00:00 | 00:00:00 | |
| DL9RDZ-1 | 2026-09-04 00:17:11 | 64.02121 | -22.33312 | 62° | 38km/h | 18936m | 4.3m/s | -47.0°C | 0.9% | 0hPa | 0V | 00:00:00 | 00:00:00 | 00:00:00 | |
| DL9RDZ-1 | 2026-09-04 00:17:02 | 64.02076 | -22.33512 | 46° | 40km/h | 18888m | 4.1m/s | -46.8°C | 0.9% | 0hPa | 0V | 00:00:00 | 00:00:00 | 00:00:00 | |
| DL9RDZ-1 | 2026-09-04 00:16:50 | 64.02012 | -22.33730 | 50° | 40km/h | 18837m | 3.9m/s | -46.6°C | 0.9% | 0hPa | 0V | 00:00:00 | 00:00:00 | 00:00:00 | |
| DL9RDZ-1 | 2026-09-04 00:16:40 | 64.01940 | -22.33931 | 56° | 42km/h | 18788m | 4.9m/s | -46.4°C | 0.9% | 0hPa | 0V | 00:00:00 | 00:00:00 | 00:00:00 | |
| DL9RDZ-1 | 2026-09-04 00:16:30 | 64.01873 | -22.34114 | 47° | 40km/h | 18740m | 5.3m/s | -46.3°C | 0.9% | 0hPa | 0V | 00:00:00 | 00:00:00 | 00:00:00 | |
| DL9RDZ-1 | 2026-09-04 00:16:19 | 64.01806 | -22.34296 | 53° | 37km/h | 18687m | 3.4m/s | -45.9°C | 0.9% | 0hPa | 0V | 00:00:00 | 00:00:00 | 00:00:00 | |
| DL9RDZ-1 | 2026-09-04 00:16:09 | 64.01744 | -22.34451 | 44° | 35km/h | 18635m | 4.6m/s | -45.8°C | 0.9% | 0hPa | 0V | 00:00:00 | 00:00:00 | 00:00:00 | |
| DL9RDZ-1 | 2026-09-04 00:15:58 | 64.01694 | -22.34585 | 52° | 31km/h | 18592m | 5.1m/s | -45.8°C | 0.9% | 0hPa | 0V | 00:00:00 | 00:00:00 | 00:00:00 | |
| DL9RDZ-1 | 2026-09-04 00:15:49 | 64.01643 | -22.34748 | 54° | 33km/h | 18546m | 4.5m/s | -45.8°C | 0.9% | 0hPa | 0V | 00:00:00 | 00:00:00 | 00:00:00 | |
| DL9RDZ-1 | 2026-09-04 00:15:37 | 64.01575 | -22.34909 | 42° | 33km/h | 18499m | 4.6m/s | -46.0°C | 0.9% | 0hPa | 0V | 00:00:00 | 00:00:00 | 00:00:00 | |
| DL9RDZ-1 | 2026-09-04 00:15:26 | 64.01521 | -22.35084 | 69° | 38km/h | 18451m | 3.8m/s | -45.9°C | 0.9% | 0hPa | 0V | 00:00:00 | 00:00:00 | 00:00:00 | |
| DL9RDZ-1 | 2026-09-04 00:15:17 | 64.01469 | -22.35253 | 46° | 33km/h | 18408m | 3.6m/s | -46.1°C | 0.9% | 0hPa | 0V | 00:00:00 | 00:00:00 | 00:00:00 | |
| DL9RDZ-1 | 2026-09-04 00:15:06 | 64.01415 | -22.35434 | 50° | 38km/h | 18366m | 3.4m/s | -46.4°C | 0.9% | 0hPa | 0V | 00:00:00 | 00:00:00 | 00:00:00 | |
| DL9RDZ-1 | 2026-09-04 00:14:32 | 64.01226 | -22.35926 | 53° | 26km/h | 18226m | 4.4m/s | -46.1°C | 0.9% | 0hPa | 0V | 00:00:00 | 00:00:00 | 00:00:00 | |
| DL9RDZ-1 | 2026-09-04 00:14:21 | 64.01184 | -22.36064 | 47° | 26km/h | 18179m | 4.0m/s | -46.0°C | 0.9% | 0hPa | 0V | 00:00:00 | 00:00:00 | 00:00:00 | |
| DL9RDZ-1 | 2026-09-04 00:14:10 | 64.01149 | -22.36182 | 52° | 24km/h | 18132m | 4.3m/s | -46.0°C | 0.9% | 0hPa | 0V | 00:00:00 | 00:00:00 | 00:00:00 | |
| DL9RDZ-1 | 2026-09-04 00:14:00 | 64.01114 | -22.36307 | 68° | 29km/h | 18087m | 4.6m/s | -46.2°C | 0.9% | 0hPa | 0V | 00:00:00 | 00:00:00 | 00:00:00 | |
| DL9RDZ-1 | 2026-09-04 00:13:26 | 64.00955 | -22.36780 | 49° | 37km/h | 17939m | 4.1m/s | -46.5°C | 0.9% | 0hPa | 0V | 00:00:00 | 00:00:00 | 00:00:00 | |
| DL9RDZ-1 | 2026-09-04 00:13:14 | 64.00881 | -22.36956 | 43° | 27km/h | 17887m | 4.7m/s | -46.4°C | 0.9% | 0hPa | 0V | 00:00:00 | 00:00:00 | 00:00:00 | |
| DL9RDZ-1 | 2026-09-04 00:13:04 | 64.00824 | -22.37078 | 43° | 29km/h | 17844m | 3.9m/s | -46.4°C | 0.9% | 0hPa | 0V | 00:00:00 | 00:00:00 | 00:00:00 | |
| DL9RDZ-1 | 2026-09-04 00:12:53 | 64.00776 | -22.37173 | 65° | 26km/h | 17791m | 4.2m/s | -46.6°C | 0.9% | 0hPa | 0V | 00:00:00 | 00:00:00 | 00:00:00 | |
| DL9RDZ-1 | 2026-09-04 00:12:05 | 64.00686 | -22.37650 | 95° | 18km/h | 17574m | 3.9m/s | -46.7°C | 0.9% | 0hPa | 0V | 00:00:00 | 00:00:00 | 00:00:00 | |
| DL9RDZ-1 | 2026-09-04 00:11:54 | 64.00691 | -22.37761 | 115° | 22km/h | 17526m | 4.5m/s | -46.5°C | 0.9% | 0hPa | 0V | 00:00:00 | 00:00:00 | 00:00:00 | |
| DL9RDZ-1 | 2026-09-04 00:11:44 | 64.00699 | -22.37854 | 109° | 20km/h | 17481m | 4.0m/s | -46.3°C | 0.9% | 0hPa | 0V | 00:00:00 | 00:00:00 | 00:00:00 | |
| DL9RDZ-1 | 2026-09-04 00:11:34 | 64.00709 | -22.37964 | 77° | 15km/h | 17436m | 3.9m/s | -46.3°C | 0.9% | 0hPa | 0V | 00:00:00 | 00:00:00 | 00:00:00 | |
| DL9RDZ-1 | 2026-09-04 00:11:23 | 64.00714 | -22.38101 | 98° | 24km/h | 17388m | 4.5m/s | -46.2°C | 0.9% | 0hPa | 0V | 00:00:00 | 00:00:00 | 00:00:00 | |
| DL9RDZ-1 | 2026-09-04 00:10:24 | 64.00664 | -22.38875 | 73° | 26km/h | 17127m | 4.1m/s | -45.8°C | 0.9% | 0hPa | 0V | 00:00:00 | 00:00:00 | 00:00:00 | |
| DL9RDZ-1 | 2026-09-04 00:09:27 | 64.00591 | -22.39974 | 79° | 37km/h | 16886m | 4.3m/s | -46.5°C | 0.9% | 0hPa | 0V | 00:00:00 | 00:00:00 | 00:00:00 | |
| DL9RDZ-1 | 2026-09-04 00:09:17 | 64.00568 | -22.40208 | 83° | 33km/h | 16839m | 4.1m/s | -46.8°C | 0.9% | 0hPa | 0V | 00:00:00 | 00:00:00 | 00:00:00 | |
| DL9RDZ-1 | 2026-09-04 00:08:46 | 64.00469 | -22.40818 | 74° | 37km/h | 16711m | 4.7m/s | -46.6°C | 0.9% | 0hPa | 0V | 00:00:00 | 00:00:00 | 00:00:00 | |
| DL9RDZ-1 | 2026-09-04 00:08:35 | 64.00439 | -22.41029 | 72° | 40km/h | 16664m | 4.0m/s | -46.5°C | 0.9% | 0hPa | 0V | 00:00:00 | 00:00:00 | 00:00:00 | |
| DL9RDZ-1 | 2026-09-04 00:08:25 | 64.00413 | -22.41234 | 70° | 35km/h | 16616m | 4.4m/s | -46.7°C | 1.0% | 0hPa | 0V | 00:00:00 | 00:00:00 | 00:00:00 | |
| DL9RDZ-1 | 2026-09-04 00:08:14 | 64.00382 | -22.41427 | 66° | 31km/h | 16569m | 4.1m/s | -46.8°C | 0.9% | 0hPa | 0V | 00:00:00 | 00:00:00 | 00:00:00 | |
| DL9RDZ-1 | 2026-09-04 00:08:04 | 64.00343 | -22.41618 | 62° | 38km/h | 16525m | 4.4m/s | -47.0°C | 1.0% | 0hPa | 0V | 00:00:00 | 00:00:00 | 00:00:00 | |
| DL9RDZ-1 | 2026-09-04 00:07:54 | 64.00299 | -22.41800 | 59° | 37km/h | 16480m | 4.6m/s | -47.2°C | 1.0% | 0hPa | 0V | 00:00:00 | 00:00:00 | 00:00:00 | |
| DL9RDZ-1 | 2026-09-04 00:07:43 | 64.00249 | -22.41957 | 59° | 26km/h | 16429m | 5.3m/s | -47.1°C | 1.0% | 0hPa | 0V | 00:00:00 | 00:00:00 | 00:00:00 | |
| DL9RDZ-1 | 2026-09-04 00:07:32 | 64.00197 | -22.42079 | 53° | 22km/h | 16377m | 4.8m/s | -47.1°C | 1.0% | 0hPa | 0V | 00:00:00 | 00:00:00 | 00:00:00 | |
| DL9RDZ-1 | 2026-09-04 00:07:22 | 64.00159 | -22.42181 | 54° | 22km/h | 16331m | 3.8m/s | -46.9°C | 1.0% | 0hPa | 0V | 00:00:00 | 00:00:00 | 00:00:00 | |
| DL9RDZ-1 | 2026-09-04 00:07:12 | 64.00134 | -22.42287 | 67° | 20km/h | 16286m | 3.9m/s | -46.9°C | 1.0% | 0hPa | 0V | 00:00:00 | 00:00:00 | 00:00:00 | |
| DL9RDZ-1 | 2026-09-04 00:07:02 | 64.00123 | -22.42412 | 91° | 20km/h | 16237m | 4.8m/s | -46.7°C | 1.0% | 0hPa | 0V | 00:00:00 | 00:00:00 | 00:00:00 | |
| DL9RDZ-1 | 2026-09-04 00:06:51 | 64.00118 | -22.42528 | 80° | 20km/h | 16190m | 4.6m/s | -46.5°C | 1.0% | 0hPa | 0V | 00:00:00 | 00:00:00 | 00:00:00 | |
| DL9RDZ-1 | 2026-09-04 00:06:41 | 64.00112 | -22.42662 | 84° | 24km/h | 16146m | 4.4m/s | -46.2°C | 0.9% | 0hPa | 0V | 00:00:00 | 00:00:00 | 00:00:00 | |
| DL9RDZ-1 | 2026-09-04 00:06:30 | 64.00101 | -22.42815 | 79° | 27km/h | 16098m | 4.3m/s | -46.2°C | 0.9% | 0hPa | 0V | 00:00:00 | 00:00:00 | 00:00:00 | |
| DL9RDZ-1 | 2026-09-04 00:06:20 | 64.00101 | -22.42988 | 98° | 26km/h | 16050m | 3.8m/s | -46.3°C | 1.0% | 0hPa | 0V | 00:00:00 | 00:00:00 | 00:00:00 | |
| DL9RDZ-1 | 2026-09-04 00:06:08 | 64.00094 | -22.43151 | 91° | 22km/h | 16000m | 4.2m/s | -46.4°C | 0.9% | 0hPa | 0V | 00:00:00 | 00:00:00 | 00:00:00 | |
| DL9RDZ-1 | 2026-09-04 00:05:56 | 64.00099 | -22.43347 | 96° | 27km/h | 15949m | 4.4m/s | -46.4°C | 1.0% | 0hPa | 0V | 00:00:00 | 00:00:00 | 00:00:00 | |
| DL9RDZ-1 | 2026-09-04 00:05:45 | 64.00103 | -22.43560 | 89° | 37km/h | 15901m | 4.2m/s | -46.6°C | 1.0% | 0hPa | 0V | 00:00:00 | 00:00:00 | 00:00:00 | |
| DL9RDZ-1 | 2026-09-04 00:05:34 | 64.00105 | -22.43802 | 89° | 38km/h | 15855m | 4.7m/s | -46.4°C | 1.0% | 0hPa | 0V | 00:00:00 | 00:00:00 | 00:00:00 | |
| DL9RDZ-1 | 2026-09-04 00:05:23 | 64.00095 | -22.44047 | 88° | 40km/h | 15808m | 3.6m/s | -46.3°C | 1.0% | 0hPa | 0V | 00:00:00 | 00:00:00 | 00:00:00 | |
| DL9RDZ-1 | 2026-09-04 00:05:13 | 64.00072 | -22.44295 | 80° | 40km/h | 15765m | 3.4m/s | -46.2°C | 1.0% | 0hPa | 0V | 00:00:00 | 00:00:00 | 00:00:00 | |
| DL9RDZ-1 | 2026-09-04 00:05:01 | 64.00039 | -22.44523 | 71° | 40km/h | 15722m | 4.0m/s | -46.3°C | 1.0% | 0hPa | 0V | 00:00:00 | 00:00:00 | 00:00:00 | |
| DL9RDZ-1 | 2026-09-04 00:04:50 | 63.99995 | -22.44764 | 57° | 38km/h | 15676m | 3.6m/s | -46.4°C | 1.0% | 0hPa | 0V | 00:00:00 | 00:00:00 | 00:00:00 | |
| DL9RDZ-1 | 2026-09-04 00:04:41 | 63.99939 | -22.44945 | 56° | 33km/h | 15631m | 3.8m/s | -46.4°C | 1.0% | 0hPa | 0V | 00:00:00 | 00:00:00 | 00:00:00 | |
| DL9RDZ-1 | 2026-09-04 00:04:29 | 63.99885 | -22.45109 | 54° | 31km/h | 15593m | 3.4m/s | -46.3°C | 1.0% | 0hPa | 0V | 00:00:00 | 00:00:00 | 00:00:00 | |
| DL9RDZ-1 | 2026-09-04 00:04:19 | 63.99838 | -22.45265 | 58° | 31km/h | 15548m | 3.5m/s | -46.3°C | 1.0% | 0hPa | 0V | 00:00:00 | 00:00:00 | 00:00:00 | |
| DL9RDZ-1 | 2026-09-04 00:03:50 | 63.99744 | -22.45669 | 76° | 29km/h | 15430m | 4.4m/s | -45.9°C | 1.0% | 0hPa | 0V | 00:00:00 | 00:00:00 | 00:00:00 | |
| DL9RDZ-1 | 2026-09-04 00:03:40 | 63.99725 | -22.45832 | 84° | 26km/h | 15384m | 3.7m/s | -45.8°C | 1.0% | 0hPa | 0V | 00:00:00 | 00:00:00 | 00:00:00 | |
| DL9RDZ-1 | 2026-09-04 00:03:27 | 63.99714 | -22.46028 | 91° | 31km/h | 15333m | 3.4m/s | -45.7°C | 1.0% | 0hPa | 0V | 00:00:00 | 00:00:00 | 00:00:00 | |
| DL9RDZ-1 | 2026-09-04 00:03:16 | 63.99708 | -22.46222 | 82° | 37km/h | 15286m | 4.2m/s | -45.9°C | 1.0% | 0hPa | 0V | 00:00:00 | 00:00:00 | 00:00:00 | |
| DL9RDZ-1 | 2026-09-04 00:03:05 | 63.99696 | -22.46454 | 86° | 38km/h | 15239m | 3.4m/s | -45.9°C | 1.0% | 0hPa | 0V | 00:00:00 | 00:00:00 | 00:00:00 | |
| DL9RDZ-1 | 2026-09-04 00:02:27 | 63.99575 | -22.47459 | 76° | 16km/h | 14992m | 4.0m/s | -45.4°C | 1.0% | 0hPa | 0V | 00:00:00 | 00:00:00 | 00:00:00 | |
| DL9RDZ-1 | 2026-09-04 00:02:05 | 63.99531 | -22.47686 | 63° | 26km/h | 14914m | 4.6m/s | -45.4°C | 1.0% | 0hPa | 0V | 00:00:00 | 00:00:00 | 00:00:00 | |
| DL9RDZ-1 | 2026-09-04 00:01:48 | 63.99499 | -22.47869 | 69° | 27km/h | 14862m | 4.5m/s | -45.5°C | 1.0% | 0hPa | 0V | 00:00:00 | 00:00:00 | 00:00:00 | |
| DL9RDZ-1 | 2026-09-04 00:01:32 | 63.99477 | -22.48018 | 75° | 29km/h | 14813m | 4.7m/s | -45.5°C | 1.1% | 0hPa | 0V | 00:00:00 | 00:00:00 | 00:00:00 | |
| DL9RDZ-1 | 2026-09-04 00:01:04 | 63.99432 | -22.48348 | 81° | 33km/h | 14716m | 3.7m/s | -45.7°C | 1.0% | 0hPa | 0V | 00:00:00 | 00:00:00 | 00:00:00 | |
| DL9RDZ-1 | 2026-09-04 00:00:53 | 63.99407 | -22.48529 | 61° | 29km/h | 14667m | 4.1m/s | -45.6°C | 1.1% | 0hPa | 0V | 00:00:00 | 00:00:00 | 00:00:00 | |
| DL9RDZ-1 | 2026-09-04 00:00:44 | 63.99373 | -22.48658 | 52° | 20km/h | 14621m | 3.6m/s | -45.4°C | 1.1% | 0hPa | 0V | 00:00:00 | 00:00:00 | 00:00:00 | |
| DL9RDZ-1 | 2026-09-04 00:00:36 | 63.99329 | -22.48756 | 57° | 18km/h | 14571m | 4.0m/s | -45.2°C | 1.1% | 0hPa | 0V | 00:00:00 | 00:00:00 | 00:00:00 | |
| DL9RDZ-1 | 2026-09-04 00:00:21 | 63.99294 | -22.48852 | 34° | 15km/h | 14522m | 4.3m/s | -44.9°C | 1.0% | 0hPa | 0V | 00:00:00 | 00:00:00 | 00:00:00 | |
| DL9RDZ-1 | 2026-09-04 00:00:11 | 63.99262 | -22.48921 | 53° | 18km/h | 14478m | 3.9m/s | -44.7°C | 1.0% | 0hPa | 0V | 00:00:00 | 00:00:00 | 00:00:00 | |
| DL9RDZ-1 | 2026-09-04 00:00:00 | 63.99238 | -22.48996 | 66° | 16km/h | 14432m | 3.9m/s | -44.4°C | 1.0% | 0hPa | 0V | 00:00:00 | 00:00:00 | 00:00:00 | |
| DL9RDZ-1 | 2026-09-03 23:59:49 | 63.99214 | -22.49101 | 54° | 20km/h | 14384m | 3.7m/s | -44.5°C | 1.0% | 0hPa | 0V | 00:00:00 | 00:00:00 | 00:00:00 | |
| DL9RDZ-1 | 2026-09-03 23:59:38 | 63.99192 | -22.49228 | 84° | 24km/h | 14337m | 3.7m/s | -44.8°C | 1.1% | 0hPa | 0V | 00:00:00 | 00:00:00 | 00:00:00 | |
| DL9RDZ-1 | 2026-09-03 23:58:51 | 63.99133 | -22.49929 | 71° | 31km/h | 14146m | 4.3m/s | -44.7°C | 1.1% | 0hPa | 0V | 00:00:00 | 00:00:00 | 00:00:00 | |
| DL9RDZ-1 | 2026-09-03 23:58:41 | 63.99099 | -22.50075 | 62° | 31km/h | 14104m | 4.7m/s | -44.8°C | 1.1% | 0hPa | 0V | 00:00:00 | 00:00:00 | 00:00:00 | |
| DL9RDZ-1 | 2026-09-03 23:58:31 | 63.99055 | -22.50233 | 53° | 29km/h | 14064m | 4.7m/s | -44.7°C | 1.1% | 0hPa | 0V | 00:00:00 | 00:00:00 | 00:00:00 | |
| DL9RDZ-1 | 2026-09-03 23:58:20 | 63.99017 | -22.50406 | 69° | 33km/h | 14016m | 4.0m/s | -44.6°C | 1.0% | 0hPa | 0V | 00:00:00 | 00:00:00 | 00:00:00 | |
| DL9RDZ-1 | 2026-09-03 23:58:09 | 63.98983 | -22.50583 | 70° | 31km/h | 13970m | 3.2m/s | -44.4°C | 1.1% | 0hPa | 0V | 00:00:00 | 00:00:00 | 00:00:00 | |
| DL9RDZ-1 | 2026-09-03 23:57:59 | 63.98958 | -22.50736 | 74° | 29km/h | 13927m | 4.5m/s | -44.1°C | 1.0% | 0hPa | 0V | 00:00:00 | 00:00:00 | 00:00:00 | |
| DL9RDZ-1 | 2026-09-03 23:57:48 | 63.98938 | -22.50919 | 67° | 24km/h | 13879m | 4.9m/s | -44.6°C | 1.0% | 0hPa | 0V | 00:00:00 | 00:00:00 | 00:00:00 | |
| DL9RDZ-1 | 2026-09-03 23:57:37 | 63.98936 | -22.51091 | 81° | 27km/h | 13834m | 4.3m/s | -44.6°C | 1.1% | 0hPa | 0V | 00:00:00 | 00:00:00 | 00:00:00 | |
| DL9RDZ-1 | 2026-09-03 23:57:27 | 63.98922 | -22.51236 | 85° | 24km/h | 13794m | 4.7m/s | -44.7°C | 1.1% | 0hPa | 0V | 00:00:00 | 00:00:00 | 00:00:00 | |
| DL9RDZ-1 | 2026-09-03 23:57:16 | 63.98903 | -22.51400 | 83° | 27km/h | 13748m | 4.1m/s | -45.0°C | 1.1% | 0hPa | 0V | 00:00:00 | 00:00:00 | 00:00:00 | |
| DL9RDZ-1 | 2026-09-03 23:57:05 | 63.98890 | -22.51575 | 70° | 26km/h | 13700m | 4.3m/s | -45.0°C | 1.1% | 0hPa | 0V | 00:00:00 | 00:00:00 | 00:00:00 | |
| DL9RDZ-1 | 2026-09-03 23:56:54 | 63.98868 | -22.51768 | 71° | 33km/h | 13655m | 3.9m/s | -45.0°C | 1.1% | 0hPa | 0V | 00:00:00 | 00:00:00 | 00:00:00 | |
| DL9RDZ-1 | 2026-09-03 23:56:44 | 63.98853 | -22.51943 | 86° | 29km/h | 13616m | 3.4m/s | -44.9°C | 1.1% | 0hPa | 0V | 00:00:00 | 00:00:00 | 00:00:00 | |
| DL9RDZ-1 | 2026-09-03 23:56:33 | 63.98841 | -22.52119 | 85° | 27km/h | 13570m | 4.1m/s | -44.8°C | 1.1% | 0hPa | 0V | 00:00:00 | 00:00:00 | 00:00:00 | |
| DL9RDZ-1 | 2026-09-03 23:56:21 | 63.98825 | -22.52339 | 78° | 31km/h | 13515m | 4.5m/s | -45.0°C | 1.1% | 0hPa | 0V | 00:00:00 | 00:00:00 | 00:00:00 | |
| DL9RDZ-1 | 2026-09-03 23:56:10 | 63.98814 | -22.52512 | 81° | 29km/h | 13472m | 4.5m/s | -45.1°C | 1.2% | 0hPa | 0V | 00:00:00 | 00:00:00 | 00:00:00 | |
| DL9RDZ-1 | 2026-09-03 23:56:00 | 63.98799 | -22.52697 | 80° | 37km/h | 13430m | 4.0m/s | -45.1°C | 1.1% | 0hPa | 0V | 00:00:00 | 00:00:00 | 00:00:00 | |
| DL9RDZ-1 | 2026-09-03 23:55:50 | 63.98784 | -22.52881 | 78° | 27km/h | 13390m | 4.7m/s | -45.3°C | 1.2% | 0hPa | 0V | 00:00:00 | 00:00:00 | 00:00:00 | |
| DL9RDZ-1 | 2026-09-03 23:55:40 | 63.98768 | -22.53024 | 76° | 26km/h | 13348m | 3.8m/s | -45.4°C | 1.2% | 0hPa | 0V | 00:00:00 | 00:00:00 | 00:00:00 | |
| DL9RDZ-1 | 2026-09-03 23:55:29 | 63.98754 | -22.53190 | 81° | 29km/h | 13303m | 3.8m/s | -45.2°C | 1.2% | 0hPa | 0V | 00:00:00 | 00:00:00 | 00:00:00 | |
| DL9RDZ-1 | 2026-09-03 23:55:19 | 63.98743 | -22.53356 | 76° | 27km/h | 13262m | 3.4m/s | -45.1°C | 1.2% | 0hPa | 0V | 00:00:00 | 00:00:00 | 00:00:00 | |
| DL9RDZ-1 | 2026-09-03 23:55:08 | 63.98726 | -22.53532 | 77° | 29km/h | 13219m | 3.0m/s | -45.3°C | 1.2% | 0hPa | 0V | 00:00:00 | 00:00:00 | 00:00:00 | |
| DL9RDZ-1 | 2026-09-03 23:54:58 | 63.98710 | -22.53702 | 74° | 31km/h | 13178m | 3.4m/s | -45.3°C | 1.2% | 0hPa | 0V | 00:00:00 | 00:00:00 | 00:00:00 | |
| DL9RDZ-1 | 2026-09-03 23:54:48 | 63.98707 | -22.53866 | 83° | 29km/h | 13140m | 3.8m/s | -45.3°C | 1.2% | 0hPa | 0V | 00:00:00 | 00:00:00 | 00:00:00 | |
| DL9RDZ-1 | 2026-09-03 23:54:37 | 63.98697 | -22.54057 | 87° | 27km/h | 13094m | 3.9m/s | -45.4°C | 1.2% | 0hPa | 0V | 00:00:00 | 00:00:00 | 00:00:00 | |
| DL9RDZ-1 | 2026-09-03 23:54:26 | 63.98685 | -22.54260 | 78° | 33km/h | 13050m | 4.3m/s | -45.5°C | 1.2% | 0hPa | 0V | 00:00:00 | 00:00:00 | 00:00:00 | |
| DL9RDZ-1 | 2026-09-03 23:54:15 | 63.98681 | -22.54461 | 90° | 35km/h | 13005m | 3.6m/s | -45.7°C | 1.3% | 0hPa | 0V | 00:00:00 | 00:00:00 | 00:00:00 | |
| DL9RDZ-1 | 2026-09-03 23:54:04 | 63.98679 | -22.54661 | 84° | 33km/h | 12962m | 4.3m/s | -45.5°C | 1.3% | 0hPa | 0V | 00:00:00 | 00:00:00 | 00:00:00 | |
| DL9RDZ-1 | 2026-09-03 23:53:53 | 63.98668 | -22.54893 | 84° | 35km/h | 12917m | 4.3m/s | -45.3°C | 1.3% | 0hPa | 0V | 00:00:00 | 00:00:00 | 00:00:00 | |
| DL9RDZ-1 | 2026-09-03 23:53:42 | 63.98653 | -22.55111 | 81° | 37km/h | 12876m | 3.5m/s | -45.1°C | 1.3% | 0hPa | 0V | 00:00:00 | 00:00:00 | 00:00:00 | |
| DL9RDZ-1 | 2026-09-03 23:53:16 | 63.98588 | -22.55597 | 74° | 35km/h | 12768m | 3.4m/s | -44.9°C | 1.2% | 0hPa | 0V | 00:00:00 | 00:00:00 | 00:00:00 | |
| DL9RDZ-1 | 2026-09-03 23:53:05 | 63.98553 | -22.55774 | 68° | 29km/h | 12724m | 3.3m/s | -45.0°C | 1.3% | 0hPa | 0V | 00:00:00 | 00:00:00 | 00:00:00 | |
| DL9RDZ-1 | 2026-09-03 23:52:54 | 63.98534 | -22.55924 | 69° | 24km/h | 12680m | 3.9m/s | -45.2°C | 1.3% | 0hPa | 0V | 00:00:00 | 00:00:00 | 00:00:00 | |
| DL9RDZ-1 | 2026-09-03 23:52:06 | 63.98389 | -22.56425 | 64° | 15km/h | 12487m | 3.2m/s | -45.3°C | 1.4% | 0hPa | 0V | 00:00:00 | 00:00:00 | 00:00:00 | |
| DL9RDZ-1 | 2026-09-03 23:49:22 | 63.98135 | -22.58372 | 78° | 26km/h | 11845m | 3.5m/s | -46.0°C | 1.5% | 0hPa | 0V | 00:00:00 | 00:00:00 | 00:00:00 | |
| DL9RDZ-1 | 2026-09-03 23:49:11 | 63.98109 | -22.58516 | 72° | 27km/h | 11801m | 3.6m/s | -46.2°C | 1.5% | 0hPa | 0V | 00:00:00 | 00:00:00 | 00:00:00 | |
| DL9RDZ-1 | 2026-09-03 23:49:00 | 63.98086 | -22.58662 | 64° | 26km/h | 11760m | 4.5m/s | -45.8°C | 1.5% | 0hPa | 0V | 00:00:00 | 00:00:00 | 00:00:00 | |
| DL9RDZ-1 | 2026-09-03 23:48:50 | 63.98062 | -22.58806 | 64° | 27km/h | 11721m | 3.4m/s | -45.8°C | 1.6% | 0hPa | 0V | 00:00:00 | 00:00:00 | 00:00:00 | |
| DL9RDZ-1 | 2026-09-03 23:48:40 | 63.98027 | -22.58960 | 62° | 29km/h | 11681m | 4.7m/s | -46.0°C | 1.6% | 0hPa | 0V | 00:00:00 | 00:00:00 | 00:00:00 | |
| DL9RDZ-1 | 2026-09-03 23:48:29 | 63.97980 | -22.59110 | 61° | 29km/h | 11639m | 4.2m/s | -46.2°C | 1.7% | 0hPa | 0V | 00:00:00 | 00:00:00 | 00:00:00 | |
| DL9RDZ-1 | 2026-09-03 23:48:18 | 63.97927 | -22.59242 | 45° | 24km/h | 11597m | 4.3m/s | -46.3°C | 1.8% | 0hPa | 0V | 00:00:00 | 00:00:00 | 00:00:00 | |
| DL9RDZ-1 | 2026-09-03 23:48:08 | 63.97885 | -22.59357 | 43° | 24km/h | 11557m | 3.7m/s | -46.4°C | 1.7% | 0hPa | 0V | 00:00:00 | 00:00:00 | 00:00:00 | |
| DL9RDZ-1 | 2026-09-03 23:47:57 | 63.97843 | -22.59452 | 49° | 26km/h | 11514m | 3.6m/s | -46.3°C | 1.8% | 0hPa | 0V | 00:00:00 | 00:00:00 | 00:00:00 | |
| DL9RDZ-1 | 2026-09-03 23:47:47 | 63.97812 | -22.59540 | 59° | 20km/h | 11475m | 3.8m/s | -46.3°C | 1.8% | 0hPa | 0V | 00:00:00 | 00:00:00 | 00:00:00 | |
| DL9RDZ-1 | 2026-09-03 23:47:37 | 63.97786 | -22.59645 | 66° | 15km/h | 11436m | 4.6m/s | -46.4°C | 2.0% | 0hPa | 0V | 00:00:00 | 00:00:00 | 00:00:00 | |
| DL9RDZ-1 | 2026-09-03 23:47:26 | 63.97762 | -22.59725 | 54° | 16km/h | 11393m | 4.1m/s | -46.7°C | 2.1% | 0hPa | 0V | 00:00:00 | 00:00:00 | 00:00:00 | |
| DL9RDZ-1 | 2026-09-03 23:47:15 | 63.97742 | -22.59790 | 64° | 15km/h | 11350m | 3.7m/s | -47.2°C | 2.3% | 0hPa | 0V | 00:00:00 | 00:00:00 | 00:00:00 | |
| DL9RDZ-1 | 2026-09-03 23:47:04 | 63.97730 | -22.59860 | 80° | 16km/h | 11308m | 4.4m/s | -47.3°C | 2.4% | 0hPa | 0V | 00:00:00 | 00:00:00 | 00:00:00 | |
| DL9RDZ-1 | 2026-09-03 23:46:54 | 63.97716 | -22.59949 | 73° | 15km/h | 11268m | 3.0m/s | -47.5°C | 2.4% | 0hPa | 0V | 00:00:00 | 00:00:00 | 00:00:00 | |
| DL9RDZ-1 | 2026-09-03 23:46:43 | 63.97694 | -22.60036 | 45° | 16km/h | 11223m | 4.3m/s | -47.9°C | 2.3% | 0hPa | 0V | 00:00:00 | 00:00:00 | 00:00:00 | |
| DL9RDZ-1 | 2026-09-03 23:46:32 | 63.97674 | -22.60120 | 64° | 20km/h | 11179m | 4.4m/s | -47.6°C | 2.3% | 0hPa | 0V | 00:00:00 | 00:00:00 | 00:00:00 | |
| DL9RDZ-1 | 2026-09-03 23:46:11 | 63.97616 | -22.60304 | 33° | 18km/h | 11094m | 3.7m/s | -48.3°C | 3.0% | 0hPa | 0V | 00:00:00 | 00:00:00 | 00:00:00 | |
| DL9RDZ-1 | 2026-09-03 23:46:01 | 63.97586 | -22.60384 | 39° | 20km/h | 11056m | 3.4m/s | -48.8°C | 3.3% | 0hPa | 0V | 00:00:00 | 00:00:00 | 00:00:00 | |
| DL9RDZ-1 | 2026-09-03 23:45:51 | 63.97562 | -22.60440 | 54° | 11km/h | 11017m | 3.2m/s | -48.9°C | 3.6% | 0hPa | 0V | 00:00:00 | 00:00:00 | 00:00:00 | |
| DL9RDZ-1 | 2026-09-03 23:45:40 | 63.97538 | -22.60521 | 59° | 22km/h | 10975m | 4.3m/s | -49.2°C | 3.9% | 0hPa | 0V | 00:00:00 | 00:00:00 | 00:00:00 | |
| DL9RDZ-1 | 2026-09-03 23:45:30 | 63.97506 | -22.60603 | 32° | 16km/h | 10937m | 3.4m/s | -49.8°C | 4.5% | 0hPa | 0V | 00:00:00 | 00:00:00 | 00:00:00 | |
| DL9RDZ-1 | 2026-09-03 23:45:19 | 63.97471 | -22.60673 | 46° | 20km/h | 10897m | 3.8m/s | -50.7°C | 5.5% | 0hPa | 0V | 00:00:00 | 00:00:00 | 00:00:00 | |
| DL9RDZ-1 | 2026-09-03 23:45:09 | 63.97447 | -22.60727 | 36° | 9km/h | 10859m | 4.2m/s | -51.1°C | 6.4% | 0hPa | 0V | 00:00:00 | 00:00:00 | 00:00:00 | |
| DL9RDZ-1 | 2026-09-03 23:44:59 | 63.97429 | -22.60784 | 67° | 11km/h | 10820m | 4.4m/s | -51.9°C | 7.2% | 0hPa | 0V | 00:00:00 | 00:00:00 | 00:00:00 | |
| DL9RDZ-1 | 2026-09-03 23:44:48 | 63.97416 | -22.60848 | 73° | 18km/h | 10778m | 4.1m/s | -51.8°C | 7.4% | 0hPa | 0V | 00:00:00 | 00:00:00 | 00:00:00 | |
| DL9RDZ-1 | 2026-09-03 23:44:38 | 63.97398 | -22.60942 | 63° | 22km/h | 10741m | 2.7m/s | -51.5°C | 7.7% | 0hPa | 0V | 00:00:00 | 00:00:00 | 00:00:00 | |
| DL9RDZ-1 | 2026-09-03 23:44:27 | 63.97365 | -22.61058 | 46° | 22km/h | 10697m | 4.1m/s | -51.3°C | 8.1% | 0hPa | 0V | 00:00:00 | 00:00:00 | 00:00:00 | |
| DL9RDZ-1 | 2026-09-03 23:44:16 | 63.97332 | -22.61171 | 60° | 26km/h | 10653m | 3.9m/s | -51.4°C | 9.5% | 0hPa | 0V | 00:00:00 | 00:00:00 | 00:00:00 | |
| DL9RDZ-1 | 2026-09-03 23:44:06 | 63.97292 | -22.61279 | 40° | 13km/h | 10611m | 3.8m/s | -52.3°C | 11.1% | 0hPa | 0V | 00:00:00 | 00:00:00 | 00:00:00 | |
| DL9RDZ-1 | 2026-09-03 23:43:55 | 63.97247 | -22.61329 | 20° | 16km/h | 10568m | 4.2m/s | -53.5°C | 12.3% | 0hPa | 0V | 00:00:00 | 00:00:00 | 00:00:00 | |
| DL9RDZ-1 | 2026-09-03 23:43:44 | 63.97201 | -22.61367 | 18° | 15km/h | 10527m | 3.1m/s | -53.6°C | 10.8% | 0hPa | 0V | 00:00:00 | 00:00:00 | 00:00:00 | |
| DL9RDZ-1 | 2026-09-03 23:43:33 | 63.97160 | -22.61391 | 17° | 20km/h | 10488m | 3.4m/s | -53.4°C | 11.5% | 0hPa | 0V | 00:00:00 | 00:00:00 | 00:00:00 | |
| DL9RDZ-1 | 2026-09-03 23:43:22 | 63.97111 | -22.61436 | 23° | 20km/h | 10446m | 4.0m/s | -53.1°C | 15.1% | 0hPa | 0V | 00:00:00 | 00:00:00 | 00:00:00 | |
| DL9RDZ-1 | 2026-09-03 23:43:11 | 63.97054 | -22.61484 | 19° | 20km/h | 10403m | 4.5m/s | -53.4°C | 21.0% | 0hPa | 0V | 00:00:00 | 00:00:00 | 00:00:00 | |
| DL9RDZ-1 | 2026-09-03 23:43:02 | 63.96995 | -22.61519 | 11° | 27km/h | 10368m | 3.6m/s | -53.3°C | 21.3% | 0hPa | 0V | 00:00:00 | 00:00:00 | 00:00:00 | |
| DL9RDZ-1 | 2026-09-03 23:42:50 | 63.96923 | -22.61549 | 11° | 27km/h | 10327m | 3.7m/s | -53.1°C | 21.7% | 0hPa | 0V | 00:00:00 | 00:00:00 | 00:00:00 | |
| DL9RDZ-1 | 2026-09-03 23:42:40 | 63.96857 | -22.61569 | 9° | 27km/h | 10289m | 2.9m/s | -53.0°C | 23.8% | 0hPa | 0V | 00:00:00 | 00:00:00 | 00:00:00 | |
| DL9RDZ-1 | 2026-09-03 23:42:30 | 63.96795 | -22.61603 | 21° | 24km/h | 10250m | 4.3m/s | -53.3°C | 26.8% | 0hPa | 0V | 00:00:00 | 00:00:00 | 00:00:00 | |
| DL9RDZ-1 | 2026-09-03 23:42:20 | 63.96733 | -22.61653 | 21° | 20km/h | 10210m | 3.9m/s | -53.0°C | 27.1% | 0hPa | 0V | 00:00:00 | 00:00:00 | 00:00:00 | |
| DL9RDZ-1 | 2026-09-03 23:42:09 | 63.96671 | -22.61691 | 359° | 27km/h | 10160m | 4.7m/s | -52.9°C | 27.1% | 0hPa | 0V | 00:00:00 | 00:00:00 | 00:00:00 | |
| DL9RDZ-1 | 2026-09-03 23:41:59 | 63.96602 | -22.61698 | 6° | 29km/h | 10115m | 4.0m/s | -52.8°C | 28.0% | 0hPa | 0V | 00:00:00 | 00:00:00 | 00:00:00 | |
| DL9RDZ-1 | 2026-09-03 23:41:48 | 63.96528 | -22.61698 | 358° | 27km/h | 10072m | 4.5m/s | -52.8°C | 28.8% | 0hPa | 0V | 00:00:00 | 00:00:00 | 00:00:00 | |
| DL9RDZ-1 | 2026-09-03 23:41:37 | 63.96458 | -22.61649 | 339° | 24km/h | 10028m | 3.6m/s | -52.7°C | 29.3% | 0hPa | 0V | 00:00:00 | 00:00:00 | 00:00:00 | |
| DL9RDZ-1 | 2026-09-03 23:41:27 | 63.96400 | -22.61601 | 339° | 27km/h | 9987m | 3.8m/s | -52.8°C | 29.7% | 0hPa | 0V | 00:00:00 | 00:00:00 | 00:00:00 | |
| DL9RDZ-1 | 2026-09-03 23:41:17 | 63.96350 | -22.61538 | 335° | 22km/h | 9950m | 3.9m/s | -52.7°C | 30.8% | 0hPa | 0V | 00:00:00 | 00:00:00 | 00:00:00 | |
| DL9RDZ-1 | 2026-09-03 23:41:07 | 63.96300 | -22.61494 | 344° | 20km/h | 9909m | 3.3m/s | -52.6°C | 31.7% | 0hPa | 0V | 00:00:00 | 00:00:00 | 00:00:00 | |
| DL9RDZ-1 | 2026-09-03 23:40:57 | 63.96251 | -22.61453 | 340° | 22km/h | 9870m | 4.4m/s | -52.3°C | 34.2% | 0hPa | 0V | 00:00:00 | 00:00:00 | 00:00:00 | |
| DL9RDZ-1 | 2026-09-03 23:40:46 | 63.96195 | -22.61414 | 349° | 22km/h | 9829m | 3.2m/s | -52.7°C | 39.2% | 0hPa | 0V | 00:00:00 | 00:00:00 | 00:00:00 | |
| DL9RDZ-1 | 2026-09-03 23:40:35 | 63.96136 | -22.61378 | 334° | 20km/h | 9789m | 3.5m/s | -52.5°C | 42.2% | 0hPa | 0V | 00:00:00 | 00:00:00 | 00:00:00 | |
| DL9RDZ-1 | 2026-09-03 23:40:24 | 63.96086 | -22.61320 | 325° | 20km/h | 9751m | 3.2m/s | -53.0°C | 46.3% | 0hPa | 0V | 00:00:00 | 00:00:00 | 00:00:00 | |
| DL9RDZ-1 | 2026-09-03 23:40:14 | 63.96050 | -22.61268 | 338° | 13km/h | 9713m | 4.3m/s | -52.9°C | 44.4% | 0hPa | 0V | 00:00:00 | 00:00:00 | 00:00:00 | |
| DL9RDZ-1 | 2026-09-03 23:40:04 | 63.96011 | -22.61253 | 361° | 16km/h | 9677m | 3.0m/s | -52.8°C | 44.5% | 0hPa | 0V | 00:00:00 | 00:00:00 | 00:00:00 | |
| DL9RDZ-1 | 2026-09-03 23:39:53 | 63.95967 | -22.61232 | 346° | 18km/h | 9637m | 3.3m/s | -52.6°C | 44.0% | 0hPa | 0V | 00:00:00 | 00:00:00 | 00:00:00 | |
| DL9RDZ-1 | 2026-09-03 23:39:42 | 63.95923 | -22.61210 | 351° | 16km/h | 9598m | 3.7m/s | -52.4°C | 44.6% | 0hPa | 0V | 00:00:00 | 00:00:00 | 00:00:00 | |
| DL9RDZ-1 | 2026-09-03 23:39:21 | 63.95846 | -22.61206 | 11° | 13km/h | 9520m | 4.1m/s | -52.0°C | 45.1% | 0hPa | 0V | 00:00:00 | 00:00:00 | 00:00:00 | |
| DL9RDZ-1 | 2026-09-03 23:39:10 | 63.95802 | -22.61221 | 11° | 16km/h | 9480m | 3.5m/s | -51.8°C | 45.5% | 0hPa | 0V | 00:00:00 | 00:00:00 | 00:00:00 | |
| DL9RDZ-1 | 2026-09-03 23:39:00 | 63.95760 | -22.61255 | 10° | 13km/h | 9441m | 3.5m/s | -51.6°C | 45.9% | 0hPa | 0V | 00:00:00 | 00:00:00 | 00:00:00 | |
| DL9RDZ-1 | 2026-09-03 23:38:47 | 63.95719 | -22.61279 | 17° | 15km/h | 9398m | 3.0m/s | -51.3°C | 46.9% | 0hPa | 0V | 00:00:00 | 00:00:00 | 00:00:00 | |
| DL9RDZ-1 | 2026-09-03 23:38:36 | 63.95679 | -22.61289 | 6° | 13km/h | 9358m | 3.4m/s | -51.1°C | 49.8% | 0hPa | 0V | 00:00:00 | 00:00:00 | 00:00:00 | |
| DL9RDZ-1 | 2026-09-03 23:38:25 | 63.95646 | -22.61307 | 16° | 11km/h | 9318m | 3.9m/s | -51.0°C | 46.1% | 0hPa | 0V | 00:00:00 | 00:00:00 | 00:00:00 | |
| DL9RDZ-1 | 2026-09-03 23:38:15 | 63.95618 | -22.61321 | 24° | 13km/h | 9281m | 3.2m/s | -50.8°C | 41.8% | 0hPa | 0V | 00:00:00 | 00:00:00 | 00:00:00 | |
| DL9RDZ-1 | 2026-09-03 23:38:05 | 63.95586 | -22.61357 | 24° | 13km/h | 9246m | 3.6m/s | -50.9°C | 46.8% | 0hPa | 0V | 00:00:00 | 00:00:00 | 00:00:00 | |
| DL9RDZ-1 | 2026-09-03 23:37:55 | 63.95565 | -22.61388 | 31° | 11km/h | 9211m | 3.2m/s | -50.7°C | 46.4% | 0hPa | 0V | 00:00:00 | 00:00:00 | 00:00:00 | |
| DL9RDZ-1 | 2026-09-03 23:37:44 | 63.95546 | -22.61418 | 45° | 7km/h | 9171m | 3.6m/s | -50.5°C | 45.7% | 0hPa | 0V | 00:00:00 | 00:00:00 | 00:00:00 | |
| DL9RDZ-1 | 2026-09-03 23:37:34 | 63.95527 | -22.61435 | 2° | 5km/h | 9133m | 4.2m/s | -50.3°C | 46.6% | 0hPa | 0V | 00:00:00 | 00:00:00 | 00:00:00 | |
| DL9RDZ-1 | 2026-09-03 23:37:23 | 63.95506 | -22.61447 | 19° | 7km/h | 9094m | 3.9m/s | -50.0°C | 46.5% | 0hPa | 0V | 00:00:00 | 00:00:00 | 00:00:00 | |
| DL9RDZ-1 | 2026-09-03 23:37:12 | 63.95490 | -22.61464 | 33° | 9km/h | 9053m | 4.2m/s | -49.8°C | 49.0% | 0hPa | 0V | 00:00:00 | 00:00:00 | 00:00:00 | |
| DL9RDZ-1 | 2026-09-03 23:37:01 | 63.95471 | -22.61488 | 24° | 7km/h | 9011m | 3.6m/s | -49.5°C | 52.5% | 0hPa | 0V | 00:00:00 | 00:00:00 | 00:00:00 | |
| DL9RDZ-1 | 2026-09-03 23:36:50 | 63.95452 | -22.61504 | 30° | 7km/h | 8971m | 4.2m/s | -49.4°C | 58.3% | 0hPa | 0V | 00:00:00 | 00:00:00 | 00:00:00 | |
| DL9RDZ-1 | 2026-09-03 23:36:40 | 63.95440 | -22.61532 | 42° | 7km/h | 8934m | 3.5m/s | -49.2°C | 60.5% | 0hPa | 0V | 00:00:00 | 00:00:00 | 00:00:00 | |
| DL9RDZ-1 | 2026-09-03 23:36:29 | 63.95427 | -22.61563 | 43° | 9km/h | 8893m | 3.4m/s | -48.9°C | 60.3% | 0hPa | 0V | 00:00:00 | 00:00:00 | 00:00:00 | |
| DL9RDZ-1 | 2026-09-03 23:36:19 | 63.95414 | -22.61604 | 80° | 5km/h | 8856m | 4.0m/s | -48.6°C | 59.2% | 0hPa | 0V | 00:00:00 | 00:00:00 | 00:00:00 | |
| DL9RDZ-1 | 2026-09-03 23:36:09 | 63.95402 | -22.61631 | 44° | 7km/h | 8816m | 3.7m/s | -48.3°C | 60.5% | 0hPa | 0V | 00:00:00 | 00:00:00 | 00:00:00 | |
| DL9RDZ-1 | 2026-09-03 23:35:57 | 63.95395 | -22.61651 | 83° | 4km/h | 8778m | 3.1m/s | -48.1°C | 62.0% | 0hPa | 0V | 00:00:00 | 00:00:00 | 00:00:00 | |
| DL9RDZ-1 | 2026-09-03 23:35:47 | 63.95388 | -22.61661 | 19° | 4km/h | 8742m | 4.0m/s | -47.8°C | 61.7% | 0hPa | 0V | 00:00:00 | 00:00:00 | 00:00:00 | |
| DL9RDZ-1 | 2026-09-03 23:35:37 | 63.95383 | -22.61668 | 6° | 4km/h | 8703m | 3.1m/s | -47.6°C | 64.6% | 0hPa | 0V | 00:00:00 | 00:00:00 | 00:00:00 | |
| DL9RDZ-1 | 2026-09-03 23:35:26 | 63.95377 | -22.61668 | 352° | 4km/h | 8663m | 3.4m/s | -47.3°C | 61.6% | 0hPa | 0V | 00:00:00 | 00:00:00 | 00:00:00 | |
| DL9RDZ-1 | 2026-09-03 23:35:15 | 63.95371 | -22.61657 | 296° | 4km/h | 8621m | 4.2m/s | -47.0°C | 59.1% | 0hPa | 0V | 00:00:00 | 00:00:00 | 00:00:00 | |
| DL9RDZ-1 | 2026-09-03 23:35:04 | 63.95371 | -22.61649 | 244° | 5km/h | 8578m | 3.3m/s | -46.6°C | 58.1% | 0hPa | 0V | 00:00:00 | 00:00:00 | 00:00:00 | |
| DL9RDZ-1 | 2026-09-03 23:34:54 | 63.95372 | -22.61644 | 97° | 2km/h | 8541m | 2.9m/s | -46.3°C | 58.7% | 0hPa | 0V | 00:00:00 | 00:00:00 | 00:00:00 | |
| DL9RDZ-1 | 2026-09-03 23:34:44 | 63.95370 | -22.61640 | 338° | 2km/h | 8497m | 4.1m/s | -45.9°C | 58.1% | 0hPa | 0V | 00:00:00 | 00:00:00 | 00:00:00 | |
| DL9RDZ-1 | 2026-09-03 23:34:32 | 63.95364 | -22.61646 | 0° | 0km/h | 8458m | 3.6m/s | -45.5°C | 57.4% | 0hPa | 0V | 00:00:00 | 00:00:00 | 00:00:00 | |
| DL9RDZ-1 | 2026-09-03 23:34:21 | 63.95364 | -22.61640 | 314° | 4km/h | 8417m | 4.7m/s | -45.1°C | 55.0% | 0hPa | 0V | 00:00:00 | 00:00:00 | 00:00:00 | |
| DL9RDZ-1 | 2026-09-03 23:34:10 | 63.95357 | -22.61631 | 347° | 5km/h | 8373m | 3.5m/s | -44.8°C | 52.7% | 0hPa | 0V | 00:00:00 | 00:00:00 | 00:00:00 | |
| DL9RDZ-1 | 2026-09-03 23:33:59 | 63.95347 | -22.61630 | 26° | 5km/h | 8331m | 4.1m/s | -44.4°C | 48.4% | 0hPa | 0V | 00:00:00 | 00:00:00 | 00:00:00 | |
| DL9RDZ-1 | 2026-09-03 23:33:48 | 63.95337 | -22.61624 | 334° | 4km/h | 8290m | 3.2m/s | -44.0°C | 47.6% | 0hPa | 0V | 00:00:00 | 00:00:00 | 00:00:00 | |
| DL9RDZ-1 | 2026-09-03 23:33:38 | 63.95327 | -22.61617 | 317° | 5km/h | 8251m | 4.0m/s | -43.7°C | 43.9% | 0hPa | 0V | 00:00:00 | 00:00:00 | 00:00:00 | |
| DL9RDZ-1 | 2026-09-03 23:33:27 | 63.95316 | -22.61600 | 349° | 5km/h | 8207m | 4.3m/s | -43.3°C | 39.0% | 0hPa | 0V | 00:00:00 | 00:00:00 | 00:00:00 | |
| DL9RDZ-1 | 2026-09-03 23:33:17 | 63.95309 | -22.61590 | 271° | 7km/h | 8168m | 4.6m/s | -43.0°C | 37.3% | 0hPa | 0V | 00:00:00 | 00:00:00 | 00:00:00 | |
| DL9RDZ-1 | 2026-09-03 23:33:07 | 63.95299 | -22.61554 | 353° | 4km/h | 8131m | 2.8m/s | -42.6°C | 37.0% | 0hPa | 0V | 00:00:00 | 00:00:00 | 00:00:00 | |
| DL9RDZ-1 | 2026-09-03 23:32:56 | 63.95288 | -22.61506 | 312° | 7km/h | 8090m | 4.3m/s | -42.2°C | 35.9% | 0hPa | 0V | 00:00:00 | 00:00:00 | 00:00:00 | |
| DL9RDZ-1 | 2026-09-03 23:32:45 | 63.95277 | -22.61472 | 291° | 5km/h | 8047m | 3.4m/s | -41.9°C | 35.2% | 0hPa | 0V | 00:00:00 | 00:00:00 | 00:00:00 | |
| DL9RDZ-1 | 2026-09-03 23:32:35 | 63.95270 | -22.61456 | 306° | 2km/h | 8008m | 3.9m/s | -41.6°C | 35.1% | 0hPa | 0V | 00:00:00 | 00:00:00 | 00:00:00 | |
| DL9RDZ-1 | 2026-09-03 23:32:24 | 63.95259 | -22.61451 | 57° | 4km/h | 7964m | 3.6m/s | -41.2°C | 35.0% | 0hPa | 0V | 00:00:00 | 00:00:00 | 00:00:00 | |
| DL9RDZ-1 | 2026-09-03 23:32:15 | 63.95254 | -22.61444 | 0° | 0km/h | 7925m | 3.6m/s | -41.0°C | 37.2% | 0hPa | 0V | 00:00:00 | 00:00:00 | 00:00:00 | |
| DL9RDZ-1 | 2026-09-03 23:32:04 | 63.95240 | -22.61453 | 96° | 4km/h | 7882m | 2.9m/s | -40.9°C | 41.0% | 0hPa | 0V | 00:00:00 | 00:00:00 | 00:00:00 | |
| DL9RDZ-1 | 2026-09-03 23:31:53 | 63.95234 | -22.61484 | 55° | 4km/h | 7846m | 2.7m/s | -40.7°C | 43.1% | 0hPa | 0V | 00:00:00 | 00:00:00 | 00:00:00 | |
| DL9RDZ-1 | 2026-09-03 23:31:43 | 63.95224 | -22.61499 | 83° | 4km/h | 7810m | 4.1m/s | -40.5°C | 42.2% | 0hPa | 0V | 00:00:00 | 00:00:00 | 00:00:00 | |
| DL9RDZ-1 | 2026-09-03 23:31:34 | 63.95210 | -22.61527 | 361° | 5km/h | 7773m | 3.9m/s | -40.1°C | 36.3% | 0hPa | 0V | 00:00:00 | 00:00:00 | 00:00:00 | |
| DL9RDZ-1 | 2026-09-03 23:31:23 | 63.95205 | -22.61561 | 65° | 9km/h | 7736m | 3.4m/s | -39.8°C | 33.7% | 0hPa | 0V | 00:00:00 | 00:00:00 | 00:00:00 | |
| DL9RDZ-1 | 2026-09-03 23:31:12 | 63.95195 | -22.61601 | 74° | 7km/h | 7696m | 3.4m/s | -39.4°C | 29.7% | 0hPa | 0V | 00:00:00 | 00:00:00 | 00:00:00 | |
| DL9RDZ-1 | 2026-09-03 23:31:02 | 63.95187 | -22.61651 | 91° | 9km/h | 7658m | 4.1m/s | -39.1°C | 23.3% | 0hPa | 0V | 00:00:00 | 00:00:00 | 00:00:00 | |
| DL9RDZ-1 | 2026-09-03 23:30:52 | 63.95186 | -22.61703 | 109° | 7km/h | 7618m | 3.6m/s | -38.9°C | 21.5% | 0hPa | 0V | 00:00:00 | 00:00:00 | 00:00:00 | |
| DL9RDZ-1 | 2026-09-03 23:29:19 | 63.95184 | -22.62122 | 114° | 9km/h | 7305m | 3.9m/s | -36.9°C | 15.3% | 0hPa | 0V | 00:00:00 | 00:00:00 | 00:00:00 | |
| DL9RDZ-1 | 2026-09-03 23:29:08 | 63.95184 | -22.62169 | 105° | 11km/h | 7269m | 3.6m/s | -36.6°C | 15.0% | 0hPa | 0V | 00:00:00 | 00:00:00 | 00:00:00 | |
| DL9RDZ-1 | 2026-09-03 23:28:57 | 63.95190 | -22.62220 | 102° | 11km/h | 7229m | 3.4m/s | -36.2°C | 14.6% | 0hPa | 0V | 00:00:00 | 00:00:00 | 00:00:00 | |
| DL9RDZ-1 | 2026-09-03 23:28:46 | 63.95190 | -22.62247 | 85° | 9km/h | 7193m | 4.2m/s | -35.9°C | 13.9% | 0hPa | 0V | 00:00:00 | 00:00:00 | 00:00:00 | |
| DL9RDZ-1 | 2026-09-03 23:28:36 | 63.95196 | -22.62283 | 135° | 7km/h | 7156m | 4.0m/s | -35.6°C | 13.6% | 0hPa | 0V | 00:00:00 | 00:00:00 | 00:00:00 | |
| DL9RDZ-1 | 2026-09-03 23:28:26 | 63.95199 | -22.62333 | 174° | 5km/h | 7117m | 2.6m/s | -35.3°C | 13.5% | 0hPa | 0V | 00:00:00 | 00:00:00 | 00:00:00 | |
| DL9RDZ-1 | 2026-09-03 23:28:15 | 63.95199 | -22.62369 | 78° | 4km/h | 7078m | 3.7m/s | -34.9°C | 13.2% | 0hPa | 0V | 00:00:00 | 00:00:00 | 00:00:00 | |
| DL9RDZ-1 | 2026-09-03 23:28:05 | 63.95202 | -22.62400 | 78° | 5km/h | 7033m | 4.6m/s | -34.6°C | 12.9% | 0hPa | 0V | 00:00:00 | 00:00:00 | 00:00:00 | |
| DL9RDZ-1 | 2026-09-03 23:27:53 | 63.95202 | -22.62444 | 74° | 7km/h | 6992m | 4.2m/s | -34.2°C | 13.0% | 0hPa | 0V | 00:00:00 | 00:00:00 | 00:00:00 | |
| DL9RDZ-1 | 2026-09-03 23:27:43 | 63.95208 | -22.62472 | 112° | 4km/h | 6954m | 3.8m/s | -34.0°C | 13.6% | 0hPa | 0V | 00:00:00 | 00:00:00 | 00:00:00 | |
| DL9RDZ-1 | 2026-09-03 23:27:33 | 63.95208 | -22.62492 | 69° | 7km/h | 6915m | 4.1m/s | -33.6°C | 15.6% | 0hPa | 0V | 00:00:00 | 00:00:00 | 00:00:00 | |
| DL9RDZ-1 | 2026-09-03 23:27:22 | 63.95221 | -22.62521 | 142° | 9km/h | 6867m | 5.9m/s | -33.5°C | 24.3% | 0hPa | 0V | 00:00:00 | 00:00:00 | 00:00:00 | |
| DL9RDZ-1 | 2026-09-03 23:27:11 | 63.95242 | -22.62558 | 152° | 13km/h | 6823m | 4.6m/s | -33.2°C | 31.3% | 0hPa | 0V | 00:00:00 | 00:00:00 | 00:00:00 | |
| DL9RDZ-1 | 2026-09-03 23:27:01 | 63.95267 | -22.62599 | 147° | 13km/h | 6785m | 3.1m/s | -32.9°C | 34.6% | 0hPa | 0V | 00:00:00 | 00:00:00 | 00:00:00 | |
| DL9RDZ-1 | 2026-09-03 23:26:40 | 63.95329 | -22.62691 | 134° | 15km/h | 6707m | 3.7m/s | -32.5°C | 46.7% | 0hPa | 0V | 00:00:00 | 00:00:00 | 00:00:00 | |
| DL9RDZ-1 | 2026-09-03 23:26:30 | 63.95356 | -22.62760 | 124° | 16km/h | 6668m | 3.0m/s | -32.2°C | 47.6% | 0hPa | 0V | 00:00:00 | 00:00:00 | 00:00:00 | |
| DL9RDZ-1 | 2026-09-03 23:26:19 | 63.95382 | -22.62811 | 140° | 13km/h | 6634m | 3.7m/s | -31.9°C | 48.7% | 0hPa | 0V | 00:00:00 | 00:00:00 | 00:00:00 | |
| DL9RDZ-1 | 2026-09-03 23:26:09 | 63.95414 | -22.62872 | 134° | 15km/h | 6593m | 3.2m/s | -31.6°C | 50.0% | 0hPa | 0V | 00:00:00 | 00:00:00 | 00:00:00 | |
| DL9RDZ-1 | 2026-09-03 23:25:58 | 63.95444 | -22.62911 | 136° | 15km/h | 6559m | 3.2m/s | -31.3°C | 51.2% | 0hPa | 0V | 00:00:00 | 00:00:00 | 00:00:00 | |
| DL9RDZ-1 | 2026-09-03 23:25:48 | 63.95471 | -22.62963 | 142° | 18km/h | 6525m | 2.2m/s | -31.1°C | 56.0% | 0hPa | 0V | 00:00:00 | 00:00:00 | 00:00:00 | |
| DL9RDZ-1 | 2026-09-03 23:25:37 | 63.95504 | -22.63013 | 156° | 11km/h | 6489m | 3.3m/s | -31.0°C | 66.3% | 0hPa | 0V | 00:00:00 | 00:00:00 | 00:00:00 | |
| DL9RDZ-1 | 2026-09-03 23:24:35 | 63.95691 | -22.63085 | 165° | 15km/h | 6278m | 3.4m/s | -29.9°C | 82.5% | 0hPa | 0V | 00:00:00 | 00:00:00 | 00:00:00 | |
| DL9RDZ-1 | 2026-09-03 23:24:25 | 63.95733 | -22.63110 | 165° | 20km/h | 6241m | 2.2m/s | -29.6°C | 81.9% | 0hPa | 0V | 00:00:00 | 00:00:00 | 00:00:00 | |
| DL9RDZ-1 | 2026-09-03 23:24:15 | 63.95773 | -22.63138 | 162° | 18km/h | 6206m | 4.1m/s | -29.3°C | 84.2% | 0hPa | 0V | 00:00:00 | 00:00:00 | 00:00:00 | |
| DL9RDZ-1 | 2026-09-03 23:24:04 | 63.95815 | -22.63169 | 182° | 18km/h | 6166m | 4.2m/s | -28.9°C | 89.6% | 0hPa | 0V | 00:00:00 | 00:00:00 | 00:00:00 | |
| DL9RDZ-1 | 2026-09-03 23:23:54 | 63.95852 | -22.63184 | 161° | 13km/h | 6130m | 2.9m/s | -28.7°C | 82.8% | 0hPa | 0V | 00:00:00 | 00:00:00 | 00:00:00 | |
| DL9RDZ-1 | 2026-09-03 23:23:43 | 63.95890 | -22.63193 | 171° | 13km/h | 6093m | 3.3m/s | -28.4°C | 88.6% | 0hPa | 0V | 00:00:00 | 00:00:00 | 00:00:00 | |
| DL9RDZ-1 | 2026-09-03 23:23:33 | 63.95923 | -22.63208 | 170° | 15km/h | 6056m | 3.3m/s | -28.3°C | 77.3% | 0hPa | 0V | 00:00:00 | 00:00:00 | 00:00:00 | |
| DL9RDZ-1 | 2026-09-03 23:23:22 | 63.95959 | -22.63221 | 179° | 16km/h | 6017m | 3.4m/s | -28.1°C | 75.3% | 0hPa | 0V | 00:00:00 | 00:00:00 | 00:00:00 | |
| DL9RDZ-1 | 2026-09-03 23:23:11 | 63.95995 | -22.63231 | 182° | 16km/h | 5977m | 2.7m/s | -27.8°C | 79.9% | 0hPa | 0V | 00:00:00 | 00:00:00 | 00:00:00 | |
| DL9RDZ-1 | 2026-09-03 23:23:02 | 63.96038 | -22.63232 | 184° | 16km/h | 5944m | 3.0m/s | -27.4°C | 89.6% | 0hPa | 0V | 00:00:00 | 00:00:00 | 00:00:00 | |
| DL9RDZ-1 | 2026-09-03 23:22:50 | 63.96086 | -22.63229 | 188° | 18km/h | 5905m | 3.7m/s | -27.0°C | 89.1% | 0hPa | 0V | 00:00:00 | 00:00:00 | 00:00:00 | |
| DL9RDZ-1 | 2026-09-03 23:22:40 | 63.96130 | -22.63232 | 183° | 16km/h | 5869m | 2.9m/s | -26.8°C | 88.7% | 0hPa | 0V | 00:00:00 | 00:00:00 | 00:00:00 | |
| DL9RDZ-1 | 2026-09-03 23:22:29 | 63.96181 | -22.63232 | 173° | 20km/h | 5829m | 3.1m/s | -26.6°C | 92.4% | 0hPa | 0V | 00:00:00 | 00:00:00 | 00:00:00 | |
| DL9RDZ-1 | 2026-09-03 23:22:18 | 63.96221 | -22.63245 | 174° | 16km/h | 5791m | 3.9m/s | -26.3°C | 92.6% | 0hPa | 0V | 00:00:00 | 00:00:00 | 00:00:00 | |
| DL9RDZ-1 | 2026-09-03 23:22:08 | 63.96262 | -22.63258 | 169° | 13km/h | 5751m | 2.4m/s | -26.0°C | 90.2% | 0hPa | 0V | 00:00:00 | 00:00:00 | 00:00:00 | |
| DL9RDZ-1 | 2026-09-03 23:21:46 | 63.96325 | -22.63295 | 201° | 7km/h | 5679m | 5.7m/s | -25.7°C | 97.7% | 0hPa | 0V | 00:00:00 | 00:00:00 | 00:00:00 | |
| DL9RDZ-1 | 2026-09-03 23:21:35 | 63.96360 | -22.63314 | 154° | 7km/h | 5627m | 3.1m/s | -25.3°C | 0% | 0hPa | 0V | 00:00:00 | 00:00:00 | 00:00:00 | |
| DL9RDZ-1 | 2026-09-03 23:21:24 | 63.96396 | -22.63310 | 188° | 18km/h | 5579m | 3.8m/s | -24.9°C | 98.6% | 0hPa | 0V | 00:00:00 | 00:00:00 | 00:00:00 | |
| DL9RDZ-1 | 2026-09-03 23:21:13 | 63.96444 | -22.63282 | 210° | 18km/h | 5530m | 4.9m/s | -24.4°C | 97.4% | 0hPa | 0V | 00:00:00 | 00:00:00 | 00:00:00 | |
| DL9RDZ-1 | 2026-09-03 23:21:02 | 63.96466 | -22.63241 | 224° | 7km/h | 5485m | 2.3m/s | -24.0°C | 97.0% | 0hPa | 0V | 00:00:00 | 00:00:00 | 00:00:00 | |
| DL9RDZ-1 | 2026-09-03 23:20:52 | 63.96499 | -22.63213 | 159° | 15km/h | 5440m | 4.3m/s | -23.5°C | 89.9% | 0hPa | 0V | 00:00:00 | 00:00:00 | 00:00:00 | |
| DL9RDZ-1 | 2026-09-03 23:20:41 | 63.96548 | -22.63199 | 153° | 13km/h | 5394m | 5.6m/s | -23.2°C | 92.1% | 0hPa | 0V | 00:00:00 | 00:00:00 | 00:00:00 | |
| DL9RDZ-1 | 2026-09-03 23:20:31 | 63.96582 | -22.63147 | 181° | 24km/h | 5356m | 3.4m/s | -22.7°C | 95.1% | 0hPa | 0V | 00:00:00 | 00:00:00 | 00:00:00 | |
| DL9RDZ-1 | 2026-09-03 23:20:20 | 63.96621 | -22.63165 | 173° | 15km/h | 5309m | 5.4m/s | -22.3°C | 91.5% | 0hPa | 0V | 00:00:00 | 00:00:00 | 00:00:00 | |
| DL9RDZ-1 | 2026-09-03 23:20:11 | 63.96654 | -22.63167 | 193° | 15km/h | 5263m | 5.0m/s | -21.8°C | 89.8% | 0hPa | 0V | 00:00:00 | 00:00:00 | 00:00:00 | |
| DL9RDZ-1 | 2026-09-03 23:19:59 | 63.96703 | -22.63165 | 174° | 16km/h | 5212m | 6.4m/s | -21.3°C | 87.2% | 0hPa | 0V | 00:00:00 | 00:00:00 | 00:00:00 | |
| DL9RDZ-1 | 2026-09-03 23:19:48 | 63.96730 | -22.63197 | 156° | 5km/h | 5156m | 4.5m/s | -20.8°C | 82.6% | 0hPa | 0V | 00:00:00 | 00:00:00 | 00:00:00 | |
| DL9RDZ-1 | 2026-09-03 23:19:37 | 63.96768 | -22.63197 | 208° | 18km/h | 5102m | 4.1m/s | -20.3°C | 80.7% | 0hPa | 0V | 00:00:00 | 00:00:00 | 00:00:00 | |
| DL9RDZ-1 | 2026-09-03 23:19:26 | 63.96799 | -22.63193 | 94° | 5km/h | 5053m | 5.0m/s | -19.8°C | 76.2% | 0hPa | 0V | 00:00:00 | 00:00:00 | 00:00:00 | |
| DL9RDZ-1 | 2026-09-03 23:19:16 | 63.96826 | -22.63189 | 202° | 18km/h | 5009m | 4.3m/s | -19.4°C | 74.3% | 0hPa | 0V | 00:00:00 | 00:00:00 | 00:00:00 | |
| DL9RDZ-1 | 2026-09-03 23:19:05 | 63.96860 | -22.63191 | 162° | 18km/h | 4958m | 5.5m/s | -18.9°C | 75.4% | 0hPa | 0V | 00:00:00 | 00:00:00 | 00:00:00 | |
| DL9RDZ-1 | 2026-09-03 23:18:44 | 63.96904 | -22.63202 | 173° | 13km/h | 4857m | 6.4m/s | -18.2°C | 81.8% | 0hPa | 0V | 00:00:00 | 00:00:00 | 00:00:00 | |
| DL9RDZ-1 | 2026-09-03 23:18:33 | 63.96934 | -22.63212 | 161° | 20km/h | 4792m | 3.4m/s | -17.7°C | 81.9% | 0hPa | 0V | 00:00:00 | 00:00:00 | 00:00:00 | |
| DL9RDZ-1 | 2026-09-03 23:18:22 | 63.96980 | -22.63229 | 166° | 15km/h | 4744m | 3.3m/s | -17.5°C | 81.3% | 0hPa | 0V | 00:00:00 | 00:00:00 | 00:00:00 | |
| DL9RDZ-1 | 2026-09-03 23:18:12 | 63.97027 | -22.63264 | 161° | 18km/h | 4702m | 5.2m/s | -17.2°C | 78.9% | 0hPa | 0V | 00:00:00 | 00:00:00 | 00:00:00 | |
| DL9RDZ-1 | 2026-09-03 23:18:01 | 63.97068 | -22.63314 | 148° | 20km/h | 4661m | 3.1m/s | -16.8°C | 77.7% | 0hPa | 0V | 00:00:00 | 00:00:00 | 00:00:00 | |
| DL9RDZ-1 | 2026-09-03 23:17:50 | 63.97104 | -22.63387 | 133° | 18km/h | 4623m | 4.3m/s | -16.5°C | 76.0% | 0hPa | 0V | 00:00:00 | 00:00:00 | 00:00:00 | |
| DL9RDZ-1 | 2026-09-03 23:17:36 | 63.97148 | -22.63487 | 142° | 15km/h | 4572m | 2.8m/s | -16.1°C | 74.4% | 0hPa | 0V | 00:00:00 | 00:00:00 | 00:00:00 | |
| DL9RDZ-1 | 2026-09-03 23:17:26 | 63.97173 | -22.63555 | 124° | 15km/h | 4536m | 3.0m/s | -15.7°C | 72.7% | 0hPa | 0V | 00:00:00 | 00:00:00 | 00:00:00 | |
| DL9RDZ-1 | 2026-09-03 23:17:16 | 63.97202 | -22.63641 | 126° | 16km/h | 4500m | 3.8m/s | -15.4°C | 71.2% | 0hPa | 0V | 00:00:00 | 00:00:00 | 00:00:00 | |
| DL9RDZ-1 | 2026-09-03 23:17:06 | 63.97230 | -22.63721 | 126° | 16km/h | 4462m | 3.4m/s | -15.0°C | 70.0% | 0hPa | 0V | 00:00:00 | 00:00:00 | 00:00:00 | |
| DL9RDZ-1 | 2026-09-03 23:16:55 | 63.97260 | -22.63805 | 130° | 16km/h | 4423m | 4.4m/s | -14.7°C | 69.1% | 0hPa | 0V | 00:00:00 | 00:00:00 | 00:00:00 | |
| DL9RDZ-1 | 2026-09-03 23:16:44 | 63.97283 | -22.63881 | 125° | 16km/h | 4386m | 4.2m/s | -14.7°C | 76.3% | 0hPa | 0V | 00:00:00 | 00:00:00 | 00:00:00 | |
| DL9RDZ-1 | 2026-09-03 23:16:33 | 63.97308 | -22.63960 | 133° | 13km/h | 4343m | 3.6m/s | -14.7°C | 84.0% | 0hPa | 0V | 00:00:00 | 00:00:00 | 00:00:00 | |
| DL9RDZ-1 | 2026-09-03 23:16:22 | 63.97329 | -22.64029 | 109° | 13km/h | 4301m | 3.7m/s | -14.7°C | 87.8% | 0hPa | 0V | 00:00:00 | 00:00:00 | 00:00:00 | |
| DL9RDZ-1 | 2026-09-03 23:16:11 | 63.97332 | -22.64082 | 95° | 9km/h | 4258m | 4.1m/s | -14.7°C | 88.3% | 0hPa | 0V | 00:00:00 | 00:00:00 | 00:00:00 | |
| DL9RDZ-1 | 2026-09-03 23:16:00 | 63.97335 | -22.64090 | 324° | 4km/h | 4203m | 6.2m/s | -14.7°C | 88.2% | 0hPa | 0V | 00:00:00 | 00:00:00 | 00:00:00 | |
| DL9RDZ-1 | 2026-09-03 23:15:50 | 63.97331 | -22.64073 | 288° | 5km/h | 4153m | 4.4m/s | -14.3°C | 85.8% | 0hPa | 0V | 00:00:00 | 00:00:00 | 00:00:00 | |
| DL9RDZ-1 | 2026-09-03 23:15:40 | 63.97322 | -22.64042 | 287° | 5km/h | 4115m | 2.9m/s | -14.0°C | 84.2% | 0hPa | 0V | 00:00:00 | 00:00:00 | 00:00:00 | |
| DL9RDZ-1 | 2026-09-03 23:15:29 | 63.97315 | -22.63990 | 281° | 9km/h | 4074m | 5.0m/s | -13.7°C | 81.1% | 0hPa | 0V | 00:00:00 | 00:00:00 | 00:00:00 | |
| DL9RDZ-1 | 2026-09-03 23:15:19 | 63.97314 | -22.63942 | 263° | 7km/h | 4034m | 4.4m/s | -13.3°C | 79.1% | 0hPa | 0V | 00:00:00 | 00:00:00 | 00:00:00 | |
| DL9RDZ-1 | 2026-09-03 23:15:08 | 63.97311 | -22.63870 | 295° | 16km/h | 3990m | 3.1m/s | -13.0°C | 77.4% | 0hPa | 0V | 00:00:00 | 00:00:00 | 00:00:00 | |
| DL9RDZ-1 | 2026-09-03 23:14:57 | 63.97306 | -22.63782 | 264° | 13km/h | 3947m | 4.0m/s | -12.6°C | 75.3% | 0hPa | 0V | 00:00:00 | 00:00:00 | 00:00:00 | |
| DL9RDZ-1 | 2026-09-03 23:14:47 | 63.97304 | -22.63699 | 275° | 13km/h | 3908m | 4.3m/s | -12.3°C | 73.6% | 0hPa | 0V | 00:00:00 | 00:00:00 | 00:00:00 | |
| DL9RDZ-1 | 2026-09-03 23:14:36 | 63.97303 | -22.63610 | 252° | 13km/h | 3865m | 4.2m/s | -11.9°C | 71.8% | 0hPa | 0V | 00:00:00 | 00:00:00 | 00:00:00 | |
| DL9RDZ-1 | 2026-09-03 23:14:25 | 63.97307 | -22.63518 | 274° | 13km/h | 3822m | 4.4m/s | -11.5°C | 70.4% | 0hPa | 0V | 00:00:00 | 00:00:00 | 00:00:00 | |
| DL9RDZ-1 | 2026-09-03 23:14:15 | 63.97305 | -22.63412 | 280° | 18km/h | 3776m | 4.7m/s | -11.1°C | 69.1% | 0hPa | 0V | 00:00:00 | 00:00:00 | 00:00:00 | |
| DL9RDZ-1 | 2026-09-03 23:14:03 | 63.97301 | -22.63301 | 277° | 15km/h | 3737m | 3.4m/s | -10.8°C | 68.3% | 0hPa | 0V | 00:00:00 | 00:00:00 | 00:00:00 | |
| DL9RDZ-1 | 2026-09-03 23:13:53 | 63.97296 | -22.63206 | 270° | 16km/h | 3700m | 3.5m/s | -10.5°C | 66.7% | 0hPa | 0V | 00:00:00 | 00:00:00 | 00:00:00 | |
| DL9RDZ-1 | 2026-09-03 23:13:33 | 63.97287 | -22.62984 | 283° | 18km/h | 3625m | 3.6m/s | -11.7°C | 85.4% | 0hPa | 0V | 00:00:00 | 00:00:00 | 00:00:00 | |
| DL9RDZ-1 | 2026-09-03 23:13:21 | 63.97268 | -22.62866 | 312° | 24km/h | 3583m | 4.8m/s | -11.7°C | 95.8% | 0hPa | 0V | 00:00:00 | 00:00:00 | 00:00:00 | |
| DL9RDZ-1 | 2026-09-03 23:13:10 | 63.97245 | -22.62817 | 321° | 15km/h | 3526m | 6.1m/s | -11.4°C | 98.2% | 0hPa | 0V | 00:00:00 | 00:00:00 | 00:00:00 | |
| DL9RDZ-1 | 2026-09-03 23:12:59 | 63.97222 | -22.62744 | 283° | 11km/h | 3459m | 5.3m/s | -10.9°C | 99.9% | 0hPa | 0V | 00:00:00 | 00:00:00 | 00:00:00 | |
| DL9RDZ-1 | 2026-09-03 23:12:48 | 63.97195 | -22.62663 | 300° | 7km/h | 3401m | 5.1m/s | -10.5°C | 99.6% | 0hPa | 0V | 00:00:00 | 00:00:00 | 00:00:00 | |
| DL9RDZ-1 | 2026-09-03 23:12:38 | 63.97167 | -22.62614 | 352° | 7km/h | 3348m | 4.1m/s | -10.1°C | 0% | 0hPa | 0V | 00:00:00 | 00:00:00 | 00:00:00 | |
| DL9RDZ-1 | 2026-09-03 23:12:27 | 63.97143 | -22.62556 | 311° | 20km/h | 3288m | 4.0m/s | -9.6°C | 97.6% | 0hPa | 0V | 00:00:00 | 00:00:00 | 00:00:00 | |
| DL9RDZ-1 | 2026-09-03 23:12:16 | 63.97104 | -22.62489 | 338° | 24km/h | 3234m | 5.2m/s | -9.0°C | 94.5% | 0hPa | 0V | 00:00:00 | 00:00:00 | 00:00:00 | |
| DL9RDZ-1 | 2026-09-03 23:12:06 | 63.97081 | -22.62467 | 287° | 16km/h | 3181m | 4.0m/s | -8.5°C | 91.9% | 0hPa | 0V | 00:00:00 | 00:00:00 | 00:00:00 | |
| DL9RDZ-1 | 2026-09-03 23:11:55 | 63.97067 | -22.62367 | 272° | 13km/h | 3136m | 3.6m/s | -8.1°C | 90.0% | 0hPa | 0V | 00:00:00 | 00:00:00 | 00:00:00 | |
| DL9RDZ-1 | 2026-09-03 23:11:44 | 63.97040 | -22.62316 | 343° | 18km/h | 3083m | 2.8m/s | -7.7°C | 88.0% | 0hPa | 0V | 00:00:00 | 00:00:00 | 00:00:00 | |
| DL9RDZ-1 | 2026-09-03 23:09:45 | 63.96753 | -22.62092 | 343° | 16km/h | 2577m | 4.0m/s | -5.2°C | 99.6% | 0hPa | 0V | 00:00:00 | 00:00:00 | 00:00:00 | |
| DL9RDZ-1 | 2026-09-03 23:09:34 | 63.96710 | -22.62058 | 338° | 16km/h | 2531m | 3.8m/s | -4.9°C | 99.6% | 0hPa | 0V | 00:00:00 | 00:00:00 | 00:00:00 | |
| DL9RDZ-1 | 2026-09-03 23:09:24 | 63.96670 | -22.62018 | 334° | 18km/h | 2489m | 4.0m/s | -4.8°C | 99.6% | 0hPa | 0V | 00:00:00 | 00:00:00 | 00:00:00 | |
| DL9RDZ-1 | 2026-09-03 23:09:13 | 63.96626 | -22.61956 | 331° | 18km/h | 2443m | 3.4m/s | -4.5°C | 99.7% | 0hPa | 0V | 00:00:00 | 00:00:00 | 00:00:00 | |
| DL9RDZ-1 | 2026-09-03 23:09:03 | 63.96575 | -22.61915 | 341° | 22km/h | 2400m | 4.2m/s | -4.2°C | 99.0% | 0hPa | 0V | 00:00:00 | 00:00:00 | 00:00:00 | |
| DL9RDZ-1 | 2026-09-03 23:08:52 | 63.96517 | -22.61885 | 354° | 24km/h | 2360m | 3.0m/s | -4.0°C | 99.3% | 0hPa | 0V | 00:00:00 | 00:00:00 | 00:00:00 | |
| DL9RDZ-1 | 2026-09-03 23:08:42 | 63.96464 | -22.61858 | 348° | 18km/h | 2324m | 3.2m/s | -3.7°C | 99.4% | 0hPa | 0V | 00:00:00 | 00:00:00 | 00:00:00 | |
| DL9RDZ-1 | 2026-09-03 23:08:31 | 63.96399 | -22.61846 | 346° | 24km/h | 2276m | 5.5m/s | -3.4°C | 98.9% | 0hPa | 0V | 00:00:00 | 00:00:00 | 00:00:00 | |
| DL9RDZ-1 | 2026-09-03 23:08:20 | 63.96333 | -22.61797 | 347° | 24km/h | 2232m | 3.5m/s | -3.1°C | 99.5% | 0hPa | 0V | 00:00:00 | 00:00:00 | 00:00:00 | |
| DL9RDZ-1 | 2026-09-03 23:08:10 | 63.96275 | -22.61753 | 342° | 27km/h | 2195m | 3.3m/s | -3.0°C | 0% | 0hPa | 0V | 00:00:00 | 00:00:00 | 00:00:00 | |
| DL9RDZ-1 | 2026-09-03 23:07:59 | 63.96203 | -22.61726 | 339° | 16km/h | 2153m | 5.8m/s | -2.8°C | 99.3% | 0hPa | 0V | 00:00:00 | 00:00:00 | 00:00:00 | |
| DL9RDZ-1 | 2026-09-03 23:07:48 | 63.96161 | -22.61695 | 343° | 24km/h | 2093m | 4.5m/s | -2.4°C | 99.6% | 0hPa | 0V | 00:00:00 | 00:00:00 | 00:00:00 | |
| DL9RDZ-1 | 2026-09-03 23:07:37 | 63.96115 | -22.61675 | 334° | 16km/h | 2032m | 6.4m/s | -2.3°C | 98.5% | 0hPa | 0V | 00:00:00 | 00:00:00 | 00:00:00 | |
| DL9RDZ-1 | 2026-09-03 23:07:26 | 63.96065 | -22.61636 | 349° | 15km/h | 1986m | 5.3m/s | -2.2°C | 0% | 0hPa | 0V | 00:00:00 | 00:00:00 | 00:00:00 | |
| DL9RDZ-1 | 2026-09-03 23:07:15 | 63.96042 | -22.61614 | 341° | 7km/h | 1925m | 6.5m/s | -1.9°C | 98.3% | 0hPa | 0V | 00:00:00 | 00:00:00 | 00:00:00 | |
| DL9RDZ-1 | 2026-09-03 23:07:05 | 63.96046 | -22.61577 | 230° | 5km/h | 1871m | 6.4m/s | -1.7°C | 98.3% | 0hPa | 0V | 00:00:00 | 00:00:00 | 00:00:00 | |
| DL9RDZ-1 | 2026-09-03 23:06:54 | 63.96069 | -22.61522 | 221° | 9km/h | 1822m | 5.4m/s | -1.4°C | 98.8% | 0hPa | 0V | 00:00:00 | 00:00:00 | 00:00:00 | |
| DL9RDZ-1 | 2026-09-03 23:06:44 | 63.96080 | -22.61513 | 262° | 9km/h | 1770m | 5.2m/s | -1.2°C | 98.4% | 0hPa | 0V | 00:00:00 | 00:00:00 | 00:00:00 | |
| DL9RDZ-1 | 2026-09-03 23:06:33 | 63.96090 | -22.61484 | 300° | 9km/h | 1724m | 4.8m/s | -0.9°C | 99.1% | 0hPa | 0V | 00:00:00 | 00:00:00 | 00:00:00 | |
| DL9RDZ-1 | 2026-09-03 23:06:23 | 63.96103 | -22.61489 | 202° | 15km/h | 1671m | 4.8m/s | -0.6°C | 98.6% | 0hPa | 0V | 00:00:00 | 00:00:00 | 00:00:00 | |
| DL9RDZ-1 | 2026-09-03 23:06:12 | 63.96117 | -22.61475 | 163° | 11km/h | 1619m | 4.9m/s | -0.2°C | 98.2% | 0hPa | 0V | 00:00:00 | 00:00:00 | 00:00:00 | |
| DL9RDZ-1 | 2026-09-03 23:06:02 | 63.96124 | -22.61475 | 219° | 9km/h | 1572m | 4.5m/s | 0.0°C | 98.4% | 0hPa | 0V | 00:00:00 | 00:00:00 | 00:00:00 | |
| DL9RDZ-1 | 2026-09-03 23:05:51 | 63.96142 | -22.61466 | 186° | 9km/h | 1515m | 7.3m/s | 0.4°C | 98.6% | 0hPa | 0V | 00:00:00 | 00:00:00 | 00:00:00 | |
| DL9RDZ-1 | 2026-09-03 23:05:41 | 63.96147 | -22.61465 | 8° | 5km/h | 1456m | 4.5m/s | 0.7°C | 99.7% | 0hPa | 0V | 00:00:00 | 00:00:00 | 00:00:00 | |
| DL9RDZ-1 | 2026-09-03 23:05:30 | 63.96146 | -22.61469 | 352° | 7km/h | 1401m | 5.0m/s | 1.1°C | 99.2% | 0hPa | 0V | 00:00:00 | 00:00:00 | 00:00:00 | |
| DL9RDZ-1 | 2026-09-03 23:05:19 | 63.96142 | -22.61510 | 122° | 11km/h | 1340m | 5.9m/s | 1.5°C | 98.1% | 0hPa | 0V | 00:00:00 | 00:00:00 | 00:00:00 | |
| DL9RDZ-1 | 2026-09-03 23:05:08 | 63.96146 | -22.61486 | 272° | 11km/h | 1281m | 7.0m/s | 2.0°C | 96.4% | 0hPa | 0V | 00:00:00 | 00:00:00 | 00:00:00 | |
| DL9RDZ-1 | 2026-09-03 23:04:58 | 63.96156 | -22.61485 | 239° | 4km/h | 1230m | 7.0m/s | 2.4°C | 0% | 0hPa | 0V | 00:00:00 | 00:00:00 | 00:00:00 | |
| DL9RDZ-1 | 2026-09-03 23:04:36 | 63.96125 | -22.61415 | 282° | 18km/h | 1118m | 5.0m/s | 2.2°C | 0% | 0hPa | 0V | 00:00:00 | 00:00:00 | 00:00:00 | |
| DL9RDZ-1 | 2026-09-03 23:04:25 | 63.96128 | -22.61353 | 288° | 11km/h | 1057m | 4.9m/s | 2.4°C | 0% | 0hPa | 0V | 00:00:00 | 00:00:00 | 00:00:00 | |
| DL9RDZ-1 | 2026-09-03 23:04:15 | 63.96133 | -22.61319 | 303° | 7km/h | 1008m | 3.9m/s | 0°C | 0% | 0hPa | 0V | 00:00:00 | 00:00:00 | 00:00:00 | |
| DL9RDZ-1 | 2026-09-03 23:04:06 | 63.96138 | -22.61264 | 191° | 5km/h | 954m | 5.1m/s | 0°C | 0% | 0hPa | 0V | 00:00:00 | 00:00:00 | 00:00:00 | |
| DL9RDZ-1 | 2026-09-03 23:03:55 | 63.96146 | -22.61238 | 270° | 9km/h | 905m | 4.3m/s | 0°C | 0% | 0hPa | 0V | 00:00:00 | 00:00:00 | 00:00:00 | |
| DL9RDZ-1 | 2026-09-03 23:03:44 | 63.96147 | -22.61201 | 192° | 5km/h | 850m | 6.4m/s | 0°C | 0% | 0hPa | 0V | 00:00:00 | 00:00:00 | 00:00:00 | |
| DL9RDZ-1 | 2026-09-03 23:03:33 | 63.96169 | -22.61164 | 322° | 4km/h | 790m | 5.2m/s | 0°C | 0% | 0hPa | 0V | 00:00:00 | 00:00:00 | 00:00:00 |